Data for 06/15/2010

Time Sea-Level Adjusted Pressure Absolute Pressure Temperature Relative Humidity Dew Point Precipitation   
(mb) (inHg) (mb) (inHg) (C) (F) (%) (C) (F) (mm) (in)
00:01 1017 30.03 846 24.98 13.2 55.8 66 7.1 44.9 13.6 0.535
00:02 1017 30.03 846 24.98 13.3 55.9 67 7.3 45.1 13.67 0.538
00:03 1017 30.03 846 24.98 13.3 55.9 66 7.2 45 13.71 0.54
00:04 1017 30.03 846 24.98 13.3 56 67 7.3 45.1 13.7 0.539
00:05 1017 30.03 846 24.98 13.4 56.1 67 7.4 45.4 13.7 0.539
00:06 1017 30.03 846 24.98 13.3 56 67 7.5 45.5 13.67 0.538
00:07 1017 30.03 846 24.98 13.3 55.9 67 7.3 45.1 13.67 0.538
00:08 1017 30.03 846 24.98 13.3 55.9 67 7.2 45 13.65 0.537
00:09 1017 30.03 846 24.98 13.3 55.9 66 7 44.6 13.67 0.538
00:10 1017 30.03 846 24.98 13.4 56.1 66 7.1 44.9 13.73 0.541
00:11 1017 30.03 846 24.98 13.4 56.1 66 7.2 44.9 13.77 0.542
00:12 1017 30.03 846 24.98 13.5 56.3 66 7.3 45.1 13.85 0.545
00:13 1017 30.03 846 24.98 13.6 56.4 65 7.2 45 13.9 0.547
00:14 1017 30.03 846 24.98 13.6 56.4 66 7.4 45.3 13.92 0.548
00:15 1017 30.03 846 24.98 13.6 56.5 66 7.4 45.4 13.92 0.548
00:16 1017 30.03 846 24.98 13.6 56.4 66 7.5 45.5 13.93 0.548
00:17 1017 30.03 846 24.98 13.5 56.4 66 7.4 45.3 13.92 0.548
00:18 1017 30.03 846 24.98 13.5 56.3 66 7.4 45.3 13.89 0.547
00:19 1017 30.03 846 24.98 13.5 56.3 66 7.4 45.4 13.87 0.546
00:20 1017 30.03 846 24.98 13.5 56.2 66 7.2 45 13.83 0.544
00:21 1017 30.03 846 24.98 13.4 56.1 66 7.2 44.9 13.8 0.543
00:22 1017 30.03 846 24.98 13.4 56 67 7.4 45.2 13.74 0.541
00:23 1017 30.03 846 24.98 13.3 56 67 7.4 45.4 13.72 0.54
00:24 1017 30.03 846 24.98 13.4 56 65 7 44.7 13.74 0.541
00:25 1017 30.03 846 24.98 13.6 56.4 65 7.2 44.9 13.95 0.549
00:26 1017 30.03 846 24.98 13.7 56.6 65 7.2 45 14.05 0.553
00:27 1017 30.03 846 24.98 13.7 56.7 65 7.2 45 14.1 0.555
00:28 1017 30.03 847 25.01 13.8 56.8 65 7.4 45.4 14.13 0.556
00:29 1017 30.03 847 25.01 13.8 56.8 66 7.5 45.5 14.09 0.555
00:30 1017 30.03 847 25.01 13.7 56.7 67 7.8 46 14.09 0.555
00:31 1018 30.06 847 25.01 13.6 56.4 68 7.8 46 13.99 0.551
00:32 1018 30.06 847 25.01 13.5 56.3 69 8 46.5 13.93 0.548
00:33 1018 30.06 847 25.01 13.4 56.1 69 8 46.4 13.8 0.543
00:34 1018 30.06 847 25.01 13.2 55.7 69 7.7 45.9 13.6 0.535
00:35 1018 30.06 847 25.01 13.1 55.6 69 7.5 45.6 13.48 0.531
00:36 1018 30.06 847 25.01 13.1 55.6 68 7.4 45.3 13.5 0.531
00:37 1018 30.06 847 25.01 13.2 55.7 69 7.8 46 13.53 0.533
00:38 1018 30.06 847 25.01 13.2 55.8 70 8 46.3 13.58 0.535
00:39 1018 30.06 847 25.01 13.2 55.7 71 8.1 46.5 13.55 0.533
00:40 1018 30.06 847 25.01 13.1 55.5 69 7.7 45.8 13.48 0.531
00:41 1018 30.06 847 25.01 13.1 55.6 70 7.8 46.1 13.58 0.535
00:42 1018 30.06 847 25.01 13.2 55.7 70 7.8 46.1 13.57 0.534
00:43 1018 30.06 847 25.01 13.2 55.7 70 7.8 46 13.57 0.534
00:44 1018 30.06 847 25.01 13.1 55.5 71 8 46.4 13.48 0.531
00:45 1018 30.06 847 25.01 12.9 55.2 72 8.1 46.5 13.32 0.524
00:46 1018 30.06 847 25.01 12.7 54.9 73 8.1 46.5 13.16 0.518
00:47 1018 30.06 847 25.01 12.6 54.6 74 8.1 46.6 13.04 0.513
00:48 1018 30.06 847 25.01 12.5 54.5 74 8 46.5 12.91 0.508
00:49 1018 30.06 847 25.01 12.4 54.4 74 8 46.4 12.88 0.507
00:50 1018 30.06 847 25.01 12.4 54.3 75 8 46.5 12.81 0.504
00:51 1018 30.06 847 25.01 12.4 54.3 74 8 46.4 12.75 0.502
00:52 1018 30.06 847 25.01 12.4 54.3 71 7.4 45.3 12.83 0.505
00:53 1018 30.06 847 25.01 12.6 54.7 72 7.7 45.9 13.01 0.512
00:54 1018 30.06 847 25.01 12.7 54.9 71 7.6 45.7 13.05 0.514
00:55 1017 30.03 847 25.01 12.8 55 71 7.6 45.8 13.1 0.516
00:56 1017 30.03 847 25.01 12.8 55 72 7.9 46.2 13.11 0.516
00:57 1017 30.03 847 25.01 12.7 54.9 71 7.6 45.8 13.06 0.514
00:58 1017 30.03 846 24.98 12.7 54.8 71 7.6 45.7 13.04 0.513
00:59 1017 30.03 846 24.98 12.7 54.9 72 7.8 46 13.05 0.514
01:00 1017 30.03 846 24.98 12.6 54.8 73 8 46.4 13.01 0.512
01:01 1017 30.03 846 24.98 12.5 54.5 74 8.1 46.6 12.95 0.51
01:02 1017 30.03 846 24.98 12.4 54.3 74 7.9 46.2 12.88 0.507
01:03 1017 30.03 846 24.98 12.4 54.3 73 7.7 45.8 12.83 0.505
01:04 1017 30.03 846 24.98 12.5 54.4 72 7.6 45.6 12.86 0.506
01:05 1017 30.03 846 24.98 12.5 54.6 71 7.5 45.5 12.91 0.508
01:06 1017 30.03 846 24.98 12.6 54.7 72 7.7 45.9 13.01 0.512
01:07 1017 30.03 846 24.98 12.6 54.7 72 7.7 45.8 12.99 0.511
01:08 1017 30.03 846 24.98 12.6 54.7 71 7.6 45.7 12.96 0.51
01:09 1017 30.03 846 24.98 12.6 54.6 72 7.7 45.8 12.92 0.509
01:10 1017 30.03 846 24.98 12.5 54.5 72 7.6 45.7 12.87 0.507
01:11 1017 30.03 846 24.98 12.4 54.3 73 7.7 45.8 12.76 0.502
01:12 1017 30.03 846 24.98 12.3 54.1 73 7.7 45.9 12.67 0.499
01:13 1017 30.03 846 24.98 12.2 53.9 73 7.5 45.4 12.56 0.494
01:14 1017 30.03 846 24.98 12.2 53.9 72 7.2 45 12.55 0.494
01:15 1017 30.03 846 24.98 12.1 53.8 71 7.1 44.9 12.5 0.492
01:16 1017 30.03 846 24.98 12.1 53.8 72 7.2 44.9 12.48 0.491
01:17 1017 30.03 846 24.98 12.1 53.8 71 7.1 44.8 12.48 0.491
01:18 1017 30.03 846 24.98 12.1 53.8 70 6.9 44.4 12.44 0.49
01:19 1017 30.03 846 24.98 12.1 53.8 71 7 44.6 12.51 0.493
01:20 1017 30.03 846 24.98 12.1 53.8 70 6.9 44.5 12.49 0.492
01:21 1017 30.03 846 24.98 12.2 53.9 69 6.6 43.9 12.51 0.493
01:22 1017 30.03 846 24.98 12.2 53.9 69 6.6 43.9 12.54 0.494
01:23 1017 30.03 846 24.98 12.2 54 68 6.6 43.9 12.61 0.496
01:24 1017 30.03 846 24.98 12.3 54.1 69 6.7 44.1 12.66 0.498
01:25 1017 30.03 846 24.98 12.3 54.1 69 6.8 44.2 12.63 0.497
01:26 1017 30.03 846 24.98 12.2 54 70 7 44.6 12.58 0.495
01:27 1017 30.03 846 24.98 12.2 53.9 70 6.9 44.3 12.48 0.491
01:28 1017 30.03 846 24.98 12.1 53.8 68 6.4 43.6 12.52 0.493
01:29 1017 30.03 846 24.98 12.2 54 67 6.2 43.2 12.68 0.499
01:30 1017 30.03 846 24.98 12.5 54.4 66 6.4 43.4 12.85 0.506
01:31 1017 30.03 846 24.98 12.6 54.7 65 6.4 43.4 13.03 0.513
01:32 1017 30.03 846 24.98 12.8 55 65 6.4 43.6 13.21 0.52
01:33 1017 30.03 846 24.98 13 55.3 65 6.7 44 13.38 0.527
01:34 1017 30.03 846 24.98 13.1 55.6 66 6.9 44.4 13.55 0.533
01:35 1017 30.03 846 24.98 13.2 55.8 65 6.9 44.5 13.58 0.535
01:36 1017 30.03 846 24.98 13.3 55.9 66 7.1 44.7 13.65 0.537
01:37 1017 30.03 846 24.98 13.3 55.9 66 7.1 44.9 13.68 0.539
01:38 1017 30.03 846 24.98 13.3 55.9 67 7.3 45.1 13.66 0.538
01:39 1017 30.03 846 24.98 13.2 55.8 68 7.4 45.3 13.56 0.534
01:40 1017 30.03 846 24.98 13.2 55.7 68 7.5 45.6 13.51 0.532
01:41 1017 30.03 846 24.98 13.1 55.6 69 7.5 45.5 13.43 0.529
01:42 1017 30.03 846 24.98 13 55.5 69 7.5 45.5 13.41 0.528
01:43 1017 30.03 846 24.98 13.1 55.5 69 7.6 45.7 13.39 0.527
01:44 1017 30.03 846 24.98 13 55.3 69 7.6 45.6 13.35 0.526
01:45 1017 30.03 846 24.98 12.9 55.2 70 7.6 45.8 13.27 0.522
01:46 1017 30.03 846 24.98 12.8 55.1 71 7.7 45.9 13.2 0.52
01:47 1017 30.03 846 24.98 12.7 54.9 71 7.7 45.8 13.12 0.517
01:48 1017 30.03 846 24.98 12.7 54.9 71 7.7 45.9 13.09 0.515
01:49 1017 30.03 846 24.98 12.6 54.7 72 7.7 45.9 13.02 0.513
01:50 1017 30.03 846 24.98 12.6 54.6 73 7.8 46 12.95 0.51
01:51 1017 30.03 846 24.98 12.4 54.4 73 7.8 46 12.85 0.506
01:52 1017 30.03 846 24.98 12.4 54.2 74 7.9 46.2 12.75 0.502
01:53 1017 30.03 846 24.98 12.2 54 75 7.9 46.3 12.64 0.498
01:54 1017 30.03 846 24.98 12.1 53.8 76 8 46.3 12.5 0.492
01:55 1017 30.03 846 24.98 12 53.6 76 8 46.4 12.42 0.489
01:56 1017 30.03 846 24.98 11.9 53.5 76 7.9 46.2 12.37 0.487
01:57 1017 30.03 846 24.98 11.9 53.5 76 7.8 46.1 12.35 0.486
01:58 1017 30.03 846 24.98 12 53.5 76 7.9 46.2 12.37 0.487
01:59 1017 30.03 846 24.98 11.9 53.5 76 7.9 46.3 12.32 0.485
02:00 1017 30.03 846 24.98 11.9 53.5 76 7.9 46.3 12.29 0.484
02:01 1017 30.03 846 24.98 11.9 53.3 77 7.9 46.3 12.23 0.481
02:02 1017 30.03 846 24.98 11.8 53.3 77 8 46.4 12.2 0.48
02:03 1017 30.03 846 24.98 11.7 53.1 77 8 46.3 12.16 0.479
02:04 1017 30.03 846 24.98 11.7 53.1 78 8 46.4 12.13 0.478
02:05 1017 30.03 846 24.98 11.7 53 78 8 46.3 12.12 0.477
02:06 1017 30.03 846 24.98 11.7 53.1 77 7.9 46.2 12.1 0.476
02:07 1017 30.03 846 24.98 11.8 53.2 77 7.9 46.2 12.14 0.478
02:08 1017 30.03 846 24.98 11.8 53.2 77 8 46.3 12.11 0.477
02:09 1017 30.03 846 24.98 11.8 53.2 77 7.9 46.2 12.16 0.479
02:10 1017 30.03 846 24.98 11.8 53.2 77 7.9 46.2 12.14 0.478
02:11 1017 30.03 846 24.98 11.8 53.2 77 7.9 46.1 12.13 0.478
02:12 1017 30.03 846 24.98 11.8 53.2 76 7.8 46 12.19 0.48
02:13 1017 30.03 846 24.98 11.9 53.4 76 7.8 46.1 12.23 0.481
02:14 1017 30.03 846 24.98 11.9 53.5 76 7.8 46.1 12.28 0.483
02:15 1017 30.03 846 24.98 11.9 53.4 76 7.8 46.1 12.25 0.482
02:16 1017 30.03 846 24.98 11.9 53.5 76 7.8 46 12.27 0.483
02:17 1017 30.03 846 24.98 11.9 53.5 76 7.9 46.2 12.24 0.482
02:18 1017 30.03 846 24.98 11.9 53.4 76 7.9 46.2 12.24 0.482
02:19 1017 30.03 846 24.98 11.8 53.3 77 7.9 46.3 12.15 0.478
02:20 1017 30.03 846 24.98 11.7 53.1 78 8 46.4 12.1 0.476
02:21 1017 30.03 846 24.98 11.6 52.9 78 7.9 46.3 12.03 0.474
02:22 1017 30.03 846 24.98 11.6 52.8 77 7.8 46 11.97 0.471
02:23 1017 30.03 846 24.98 11.6 52.9 77 7.7 45.9 11.96 0.471
02:24 1017 30.03 846 24.98 11.7 53 77 7.8 46 12.03 0.474
02:25 1017 30.03 846 24.98 11.7 53.1 77 7.8 46 12.05 0.474
02:26 1017 30.03 846 24.98 11.7 53.1 76 7.8 46 12.07 0.475
02:27 1017 30.03 846 24.98 11.8 53.2 76 7.8 46 12.07 0.475
02:28 1017 30.03 846 24.98 11.7 53.1 77 7.7 45.9 12.06 0.475
02:29 1017 30.03 846 24.98 11.7 53.1 77 7.8 46 12.04 0.474
02:30 1017 30.03 846 24.98 11.7 53 76 7.7 45.8 12.03 0.474
02:31 1017 30.03 846 24.98 11.6 52.9 77 7.6 45.8 12 0.472
02:32 1017 30.03 846 24.98 11.6 52.8 77 7.7 45.8 11.9 0.469
02:33 1017 30.03 846 24.98 11.5 52.7 77 7.6 45.7 11.85 0.467
02:34 1017 30.03 846 24.98 11.4 52.6 77 7.6 45.7 11.81 0.465
02:35 1017 30.03 846 24.98 11.4 52.5 77 7.6 45.7 11.76 0.463
02:36 1017 30.03 846 24.98 11.3 52.4 78 7.6 45.7 11.68 0.46
02:37 1017 30.03 846 24.98 11.2 52.2 78 7.6 45.7 11.58 0.456
02:38 1017 30.03 846 24.98 11.1 52 78 7.5 45.5 11.49 0.452
02:39 1017 30.03 846 24.98 11.1 52.1 79 7.6 45.7 11.43 0.45
02:40 1017 30.03 846 24.98 11.1 51.9 79 7.5 45.5 11.39 0.448
02:41 1017 30.03 846 24.98 11 51.8 79 7.5 45.6 11.35 0.447
02:42 1017 30.03 846 24.98 10.9 51.7 79 7.5 45.5 11.28 0.444
02:43 1017 30.03 846 24.98 10.9 51.5 79 7.5 45.4 11.19 0.441
02:44 1017 30.03 846 24.98 10.8 51.4 79 7.4 45.3 11.12 0.438
02:45 1017 30.03 846 24.98 10.7 51.3 80 7.4 45.3 11.03 0.434
02:46 1017 30.03 846 24.98 10.6 51.1 80 7.4 45.3 10.99 0.433
02:47 1017 30.03 846 24.98 10.5 51 81 7.4 45.3 10.92 0.43
02:48 1017 30.03 846 24.98 10.4 50.7 81 7.4 45.2 10.79 0.425
02:49 1017 30.03 846 24.98 10.3 50.6 81 7.3 45.1 10.71 0.422
02:50 1017 30.03 846 24.98 10.3 50.5 81 7.2 45 10.67 0.42
02:51 1017 30.03 846 24.98 10.3 50.5 81 7.2 45 10.61 0.418
02:52 1017 30.03 846 24.98 10.3 50.5 81 7.2 44.9 10.57 0.416
02:53 1017 30.03 846 24.98 10.3 50.5 81 7.2 44.9 10.59 0.417
02:54 1016 30 846 24.98 10.3 50.5 81 7.2 44.9 10.54 0.415
02:55 1016 30 846 24.98 10.2 50.3 81 7.1 44.8 10.47 0.412
02:56 1016 30 846 24.98 10.1 50.3 81 7.1 44.8 10.43 0.411
02:57 1016 30 846 24.98 10.2 50.3 81 7 44.6 10.5 0.413
02:58 1016 30 846 24.98 10.2 50.3 80 7 44.6 10.51 0.414
02:59 1016 30 846 24.98 10.2 50.4 80 6.9 44.4 10.57 0.416
03:00 1016 30 846 24.98 10.4 50.7 79 6.9 44.4 10.68 0.42
03:01 1016 30 846 24.98 10.4 50.7 78 6.8 44.3 10.73 0.422
03:02 1016 30 846 24.98 10.4 50.8 78 6.8 44.3 10.74 0.423
03:03 1016 30 846 24.98 10.4 50.8 78 6.8 44.3 10.7 0.421
03:04 1016 30 846 24.98 10.4 50.8 78 6.7 44.1 10.75 0.423
03:05 1016 30 846 24.98 10.5 50.8 77 6.7 44 10.78 0.424
03:06 1016 30 846 24.98 10.5 50.9 77 6.7 44.1 10.8 0.425
03:07 1016 30 846 24.98 10.5 50.9 77 6.7 44.1 10.81 0.426
03:08 1016 30 846 24.98 10.4 50.8 78 6.7 44.1 10.74 0.423
03:09 1016 30 846 24.98 10.4 50.7 78 6.8 44.2 10.66 0.42
03:10 1016 30 846 24.98 10.3 50.5 79 6.8 44.3 10.6 0.417
03:11 1016 30 846 24.98 10.3 50.5 79 6.8 44.3 10.57 0.416
03:12 1016 30 846 24.98 10.3 50.5 79 6.8 44.2 10.59 0.417
03:13 1016 30 846 24.98 10.3 50.5 79 6.8 44.3 10.59 0.417
03:14 1016 30 846 24.98 10.3 50.5 79 6.8 44.3 10.56 0.416
03:15 1016 30 846 24.98 10.2 50.4 79 6.7 44 10.48 0.413
03:16 1016 30 846 24.98 10 50 79 6.6 43.8 10.34 0.407
03:17 1016 30 846 24.98 9.7 49.5 80 6.5 43.7 10.08 0.397
03:18 1016 30 846 24.98 9.5 49.1 81 6.5 43.7 9.9 0.39
03:19 1016 30 846 24.98 9.4 48.9 82 6.5 43.8 9.77 0.385
03:20 1016 30 846 24.98 9.4 48.9 82 6.6 43.8 9.8 0.386
03:21 1016 30 846 24.98 9.5 49.1 82 6.6 43.9 9.81 0.386
03:22 1016 30 846 24.98 9.6 49.3 82 6.6 43.9 9.97 0.393
03:23 1016 30 846 24.98 9.8 49.6 81 6.6 43.9 10.07 0.396
03:24 1016 30 846 24.98 9.9 49.8 80 6.6 43.8 10.16 0.4
03:25 1016 30 846 24.98 9.8 49.7 80 6.5 43.7 10.15 0.4
03:26 1016 30 846 24.98 9.7 49.5 80 6.5 43.6 10.04 0.395
03:27 1016 30 846 24.98 9.6 49.3 80 6.4 43.6 9.91 0.39
03:28 1016 30 846 24.98 9.5 49.1 81 6.4 43.5 9.82 0.387
03:29 1016 30 846 24.98 9.4 48.9 81 6.3 43.3 9.74 0.383
03:30 1016 30 846 24.98 9.3 48.7 81 6.3 43.3 9.65 0.38
03:31 1016 30 846 24.98 9.2 48.6 81 6.2 43.2 9.59 0.378
03:32 1016 30 846 24.98 9.2 48.5 81 6.2 43.1 9.5 0.374
03:33 1017 30.03 846 24.98 9.1 48.3 81 6 42.9 9.39 0.37
03:34 1017 30.03 846 24.98 8.9 48 82 6.1 42.9 9.29 0.366
03:35 1017 30.03 846 24.98 8.7 47.7 83 6.1 42.9 9.13 0.359
03:36 1017 30.03 846 24.98 8.6 47.4 84 6 42.8 9.01 0.355
03:37 1017 30.03 846 24.98 8.5 47.3 84 6 42.8 8.92 0.351
03:38 1017 30.03 846 24.98 8.5 47.2 84 5.9 42.6 8.88 0.35
03:39 1017 30.03 846 24.98 8.5 47.3 83 5.9 42.5 8.84 0.348
03:40 1017 30.03 846 24.98 8.5 47.4 83 5.8 42.5 8.85 0.348
03:41 1017 30.03 846 24.98 8.4 47.1 84 5.8 42.5 8.73 0.344
03:42 1017 30.03 846 24.98 8.1 46.6 85 5.8 42.5 8.54 0.336
03:43 1017 30.03 846 24.98 8.1 46.5 85 5.7 42.3 8.46 0.333
03:44 1017 30.03 846 24.98 8 46.3 85 5.7 42.2 8.36 0.329
03:45 1017 30.03 846 24.98 7.9 46.2 86 5.8 42.4 8.26 0.325
03:46 1017 30.03 846 24.98 8 46.4 86 5.8 42.4 8.38 0.33
03:47 1017 30.03 846 24.98 8.3 46.9 85 5.9 42.6 8.52 0.335
03:48 1017 30.03 846 24.98 8.5 47.3 83 5.8 42.4 8.8 0.346
03:49 1017 30.03 846 24.98 8.5 47.2 83 5.7 42.3 8.78 0.346
03:50 1017 30.03 846 24.98 8.4 47 83 5.6 42.1 8.69 0.342
03:51 1017 30.03 846 24.98 8.3 46.9 83 5.6 42.1 8.6 0.339
03:52 1017 30.03 846 24.98 8.2 46.8 84 5.8 42.4 8.57 0.337
03:53 1017 30.03 846 24.98 8.4 47.1 83 5.8 42.4 8.69 0.342
03:54 1017 30.03 846 24.98 9 48.2 81 6 42.7 9.11 0.359
03:55 1017 30.03 846 24.98 9.2 48.5 80 6 42.7 9.41 0.37
03:56 1017 30.03 846 24.98 9.3 48.8 79 5.9 42.7 9.54 0.376
03:57 1017 30.03 846 24.98 9.5 49 78 5.9 42.6 9.68 0.381
03:58 1017 30.03 846 24.98 9.5 49.2 77 5.7 42.3 9.73 0.383
03:59 1017 30.03 846 24.98 9.3 48.8 80 6 42.8 9.63 0.379
04:00 1017 30.03 846 24.98 9.4 48.9 79 6 42.8 9.71 0.382
04:01 1017 30.03 846 24.98 9.5 49.1 78 5.9 42.7 9.82 0.387
04:02 1017 30.03 846 24.98 9.5 49.1 78 5.8 42.5 9.75 0.384
04:03 1017 30.03 846 24.98 9.5 49.2 77 5.8 42.4 9.79 0.385
04:04 1017 30.03 846 24.98 9.9 49.8 75 5.8 42.4 10.07 0.396
04:05 1017 30.03 846 24.98 9.9 49.8 75 5.7 42.3 10.12 0.398
04:06 1017 30.03 846 24.98 9.6 49.2 76 5.6 42.1 9.9 0.39
04:07 1017 30.03 846 24.98 9.3 48.7 78 5.6 42.1 9.61 0.378
04:08 1017 30.03 846 24.98 9 48.2 79 5.6 42 9.36 0.369
04:09 1017 30.03 846 24.98 8.7 47.7 79 5.4 41.7 9.12 0.359
04:10 1017 30.03 846 24.98 8.5 47.3 81 5.4 41.7 8.84 0.348
04:11 1017 30.03 846 24.98 8.2 46.7 81 5.2 41.4 8.63 0.34
04:12 1017 30.03 846 24.98 7.8 46.1 83 5.2 41.3 8.32 0.328
04:13 1017 30.03 846 24.98 7.5 45.4 85 5.1 41.2 8.03 0.316
04:14 1017 30.03 846 24.98 7.3 45.1 86 5.1 41.1 7.79 0.307
04:15 1017 30.03 846 24.98 7.1 44.7 87 5.1 41.2 7.61 0.3
04:16 1017 30.03 846 24.98 7.1 44.8 87 5.1 41.1 7.58 0.298
04:17 1017 30.03 846 24.98 7 44.6 87 4.9 40.9 7.48 0.294
04:18 1017 30.03 846 24.98 7 44.5 88 5.1 41.1 7.38 0.291
04:19 1017 30.03 846 24.98 6.9 44.4 88 5 41.1 7.35 0.289
04:20 1017 30.03 846 24.98 6.9 44.4 88 5.1 41.2 7.28 0.287
04:21 1017 30.03 846 24.98 6.9 44.4 89 5.2 41.4 7.28 0.287
04:22 1017 30.03 846 24.98 7 44.5 89 5.2 41.4 7.31 0.288
04:23 1017 30.03 846 24.98 7.1 44.7 88 5.2 41.3 7.36 0.29
04:24 1017 30.03 846 24.98 7.1 44.8 88 5.3 41.5 7.37 0.29
04:25 1017 30.03 846 24.98 7.2 44.9 88 5.3 41.5 7.37 0.29
04:26 1017 30.03 846 24.98 7.1 44.9 88 5.2 41.4 7.44 0.293
04:27 1017 30.03 846 24.98 7.2 45 87 5.3 41.5 7.47 0.294
04:28 1017 30.03 846 24.98 7.4 45.2 86 5.2 41.4 7.58 0.298
04:29 1017 30.03 846 24.98 7.4 45.3 86 5.2 41.4 7.61 0.3
04:30 1017 30.03 846 24.98 7.4 45.3 86 5.2 41.4 7.62 0.3
04:31 1017 30.03 846 24.98 7.4 45.2 86 5.1 41.2 7.63 0.3
04:32 1017 30.03 846 24.98 7.3 45.1 86 5.1 41.2 7.61 0.3
04:33 1017 30.03 846 24.98 7.2 44.9 86 5.1 41.1 7.53 0.296
04:34 1017 30.03 846 24.98 7.1 44.7 87 5 41 7.42 0.292
04:35 1017 30.03 846 24.98 7 44.7 87 5 41.1 7.37 0.29
04:36 1017 30.03 846 24.98 7 44.7 87 5 41 7.35 0.289
04:37 1017 30.03 846 24.98 7.1 44.7 87 5 41.1 7.36 0.29
04:38 1017 30.03 846 24.98 7.1 44.8 87 5.1 41.2 7.36 0.29
04:39 1017 30.03 846 24.98 7.2 44.9 87 5.1 41.2 7.45 0.293
04:40 1017 30.03 846 24.98 7.2 44.9 86 5 41.1 7.5 0.295
04:41 1017 30.03 846 24.98 7.2 44.9 86 5 41 7.5 0.295
04:42 1017 30.03 846 24.98 7.1 44.7 86 4.9 40.8 7.42 0.292
04:43 1017 30.03 846 24.98 6.9 44.5 87 4.9 40.8 7.3 0.287
04:44 1017 30.03 846 24.98 6.9 44.4 87 4.9 40.8 7.2 0.283
04:45 1017 30.03 846 24.98 6.8 44.2 87 4.8 40.7 7.14 0.281
04:46 1017 30.03 846 24.98 6.7 44.1 88 4.9 40.8 7.09 0.279
04:47 1017 30.03 846 24.98 6.7 44.1 89 5.1 41.2 7.07 0.278
04:48 1017 30.03 846 24.98 6.9 44.3 87 4.9 40.8 7.2 0.283
04:49 1017 30.03 846 24.98 6.9 44.3 87 4.8 40.7 7.17 0.282
04:50 1017 30.03 846 24.98 6.8 44.2 87 4.8 40.7 7.11 0.28
04:51 1017 30.03 846 24.98 6.7 44 88 4.8 40.7 7.03 0.277
04:52 1017 30.03 846 24.98 6.6 43.9 88 4.7 40.5 7 0.276
04:53 1017 30.03 846 24.98 6.5 43.8 88 4.7 40.5 6.91 0.272
04:54 1017 30.03 846 24.98 6.6 43.8 88 4.7 40.5 6.95 0.274
04:55 1017 30.03 846 24.98 6.7 44 87 4.7 40.5 6.973 0.275
04:56 1017 30.03 846 24.98 6.7 44 87 4.7 40.4 7.02 0.276
04:57 1017 30.03 846 24.98 6.7 44.1 87 4.7 40.5 7.03 0.277
04:58 1017 30.03 846 24.98 6.7 44.1 87 4.7 40.4 7.05 0.278
04:59 1017 30.03 846 24.98 6.7 44.1 87 4.7 40.5 7.1 0.28
05:00 1017 30.03 846 24.98 6.8 44.2 86 4.7 40.4 7.1 0.28
05:01 1017 30.03 846 24.98 6.8 44.2 87 4.7 40.5 7.1 0.28
05:02 1017 30.03 846 24.98 6.9 44.4 86 4.7 40.5 7.16 0.282
05:03 1017 30.03 846 24.98 6.9 44.4 86 4.7 40.5 7.17 0.282
05:04 1017 30.03 846 24.98 7 44.5 86 4.7 40.5 7.27 0.286
05:05 1017 30.03 846 24.98 7.1 44.7 85 4.8 40.6 7.33 0.289
05:06 1017 30.03 846 24.98 7.1 44.7 85 4.8 40.6 7.34 0.289
05:07 1017 30.03 846 24.98 7.2 44.9 85 4.8 40.6 7.44 0.293
05:08 1017 30.03 846 24.98 7.2 44.9 85 4.8 40.6 7.52 0.296
05:09 1017 30.03 846 24.98 7.1 44.9 85 4.7 40.5 7.47 0.294
05:10 1017 30.03 846 24.98 7.1 44.8 85 4.8 40.6 7.41 0.292
05:11 1017 30.03 846 24.98 7 44.5 86 4.7 40.5 7.33 0.289
05:12 1017 30.03 846 24.98 6.9 44.4 86 4.7 40.5 7.26 0.286
05:13 1017 30.03 846 24.98 6.8 44.2 87 4.7 40.5 7.19 0.283
05:14 1017 30.03 846 24.98 6.8 44.2 87 4.8 40.6 7.12 0.28
05:15 1017 30.03 846 24.98 6.7 44 87 4.8 40.6 7.08 0.279
05:16 1017 30.03 847 25.01 6.7 44 88 4.8 40.6 7.06 0.278
05:17 1017 30.03 847 25.01 6.7 44 87 4.8 40.6 7.05 0.278
05:18 1017 30.03 847 25.01 6.7 44.1 88 4.9 40.7 7.09 0.279
05:19 1017 30.03 847 25.01 6.7 44.1 88 4.9 40.8 7.1 0.28
05:20 1017 30.03 847 25.01 6.8 44.2 88 5 40.9 7.12 0.28
05:21 1017 30.03 847 25.01 6.7 44.1 88 5 40.9 7.1 0.28
05:22 1017 30.03 847 25.01 6.7 44.1 89 5 41 7.09 0.279
05:23 1017 30.03 847 25.01 6.8 44.2 89 5 41.1 7.16 0.282
05:24 1017 30.03 847 25.01 6.8 44.3 89 5.1 41.2 7.18 0.283
05:25 1018 30.06 847 25.01 6.9 44.5 88 5.2 41.3 7.25 0.285
05:26 1018 30.06 847 25.01 7 44.6 88 5.2 41.3 7.34 0.289
05:27 1018 30.06 847 25.01 7.1 44.9 87 5.2 41.3 7.46 0.294
05:28 1018 30.06 847 25.01 7.2 45 87 5.2 41.3 7.58 0.298
05:29 1018 30.06 847 25.01 7.3 45.2 86 5.2 41.3 7.59 0.299
05:30 1018 30.06 847 25.01 7.4 45.4 86 5.2 41.3 7.75 0.305
05:31 1018 30.06 847 25.01 7.5 45.5 86 5.3 41.5 7.78 0.306
05:32 1018 30.06 847 25.01 7.5 45.6 86 5.3 41.5 7.81 0.307
05:33 1018 30.06 847 25.01 7.6 45.7 85 5.2 41.4 7.88 0.31
05:34 1018 30.06 847 25.01 7.8 46 84 5.3 41.6 8 0.315
05:35 1018 30.06 847 25.01 7.8 46 85 5.4 41.7 8.1 0.319
05:36 1018 30.06 847 25.01 7.8 46.1 85 5.4 41.8 8.13 0.32
05:37 1018 30.06 847 25.01 7.8 46.1 85 5.5 41.9 8.12 0.32
05:38 1018 30.06 847 25.01 7.8 46.1 86 5.6 42 8.09 0.319
05:39 1018 30.06 847 25.01 7.8 46 86 5.5 42 8.12 0.32
05:40 1018 30.06 847 25.01 7.8 46 86 5.6 42.1 8.09 0.319
05:41 1018 30.06 847 25.01 7.8 46 86 5.6 42 8.1 0.319
05:42 1018 30.06 847 25.01 7.8 46 86 5.6 42.1 8.14 0.32
05:43 1018 30.06 847 25.01 7.8 46 86 5.6 42.1 8.09 0.319
05:44 1018 30.06 847 25.01 7.7 45.9 87 5.6 42.2 8.04 0.317
05:45 1018 30.06 847 25.01 7.7 45.8 87 5.7 42.2 8.05 0.317
05:46 1018 30.06 847 25.01 7.7 45.8 87 5.7 42.3 8.04 0.317
05:47 1018 30.06 847 25.01 7.6 45.7 88 5.7 42.2 8 0.315
05:48 1018 30.06 847 25.01 7.5 45.6 88 5.7 42.2 7.91 0.311
05:49 1018 30.06 847 25.01 7.4 45.4 88 5.6 42.1 7.8 0.307
05:50 1018 30.06 847 25.01 7.4 45.2 89 5.6 42.1 7.73 0.304
05:51 1018 30.06 847 25.01 7.3 45.1 89 5.6 42 7.68 0.302
05:52 1018 30.06 847 25.01 7.3 45.1 89 5.6 42 7.65 0.301
05:53 1018 30.06 847 25.01 7.3 45.1 89 5.5 42 7.67 0.302
05:54 1017 30.03 847 25.01 7.3 45.1 89 5.5 42 7.65 0.301
05:55 1017 30.03 847 25.01 7.2 45 89 5.5 42 7.61 0.3
05:56 1017 30.03 847 25.01 7.3 45.1 89 5.6 42 7.65 0.301
05:57 1017 30.03 847 25.01 7.3 45.2 88 5.6 42 7.7 0.303
05:58 1017 30.03 847 25.01 7.4 45.3 88 5.6 42 7.76 0.306
05:59 1017 30.03 847 25.01 7.5 45.4 88 5.6 42 7.87 0.31
06:00 1017 30.03 847 25.01 7.6 45.6 87 5.6 42.1 7.93 0.312
06:01 1017 30.03 846 24.98 7.6 45.7 87 5.6 42.1 8 0.315
06:02 1017 30.03 846 24.98 7.6 45.8 87 5.6 42.1 8.04 0.317
06:03 1017 30.03 846 24.98 7.7 45.9 87 5.7 42.2 8.04 0.317
06:04 1017 30.03 846 24.98 7.7 45.8 87 5.7 42.2 8.11 0.319
06:05 1017 30.03 846 24.98 7.7 45.9 87 5.7 42.3 8.17 0.322
06:06 1017 30.03 846 24.98 7.7 45.9 88 5.9 42.5 8.24 0.324
06:07 1017 30.03 846 24.98 7.8 46 87 5.8 42.5 8.28 0.326
06:08 1017 30.03 846 24.98 7.9 46.3 87 5.9 42.6 8.36 0.329
06:09 1017 30.03 846 24.98 8.1 46.5 86 5.9 42.6 8.48 0.334
06:10 1017 30.03 846 24.98 8.3 46.9 86 6 42.9 8.61 0.339
06:11 1017 30.03 846 24.98 8.3 47 86 6.2 43.1 8.7 0.343
06:12 1017 30.03 846 24.98 8.3 47 86 6.2 43.2 8.77 0.345
06:13 1017 30.03 846 24.98 8.3 47 87 6.3 43.4 8.74 0.344
06:14 1017 30.03 846 24.98 8.3 47 88 6.4 43.5 8.81 0.347
06:15 1017 30.03 846 24.98 8.4 47 88 6.4 43.5 8.81 0.347
06:16 1017 30.03 846 24.98 8.5 47.2 87 6.4 43.5 8.89 0.35
06:17 1017 30.03 846 24.98 8.6 47.4 87 6.5 43.7 8.98 0.354
06:18 1017 30.03 846 24.98 8.6 47.5 87 6.5 43.7 9.1 0.358
06:19 1017 30.03 846 24.98 8.7 47.7 86 6.6 43.9 9.12 0.359
06:20 1017 30.03 846 24.98 8.8 47.9 87 6.7 44.1 9.22 0.363
06:21 1017 30.03 846 24.98 8.9 47.9 86 6.7 44.1 9.27 0.365
06:22 1017 30.03 846 24.98 8.9 48 86 6.7 44.1 9.29 0.366
06:23 1017 30.03 846 24.98 8.9 48 86 6.8 44.2 9.3 0.366
06:24 1017 30.03 846 24.98 8.9 48.1 87 6.9 44.3 9.3 0.366
06:25 1017 30.03 846 24.98 8.9 48.1 87 6.9 44.4 9.31 0.367
06:26 1017 30.03 846 24.98 8.9 48 87 6.8 44.2 9.3 0.366
06:27 1017 30.03 846 24.98 9 48.2 86 6.8 44.3 9.38 0.369
06:28 1017 30.03 846 24.98 9.1 48.3 86 6.8 44.3 9.39 0.37
06:29 1017 30.03 846 24.98 9.2 48.5 86 6.9 44.4 9.46 0.372
06:30 1017 30.03 846 24.98 9.2 48.5 86 7 44.6 9.5 0.374
06:31 1017 30.03 846 24.98 9.2 48.5 86 7 44.7 9.55 0.376
06:32 1017 30.03 846 24.98 9.2 48.5 87 7 44.7 9.52 0.375
06:33 1017 30.03 847 25.01 9.1 48.4 87 7 44.7 9.5 0.374
06:34 1017 30.03 847 25.01 9.1 48.4 87 7.1 44.7 9.51 0.374
06:35 1017 30.03 847 25.01 9.2 48.5 87 7.1 44.8 9.49 0.374
06:36 1017 30.03 847 25.01 9.1 48.4 88 7.2 44.9 9.49 0.374
06:37 1017 30.03 847 25.01 9.2 48.5 88 7.3 45.1 9.52 0.375
06:38 1017 30.03 847 25.01 9.2 48.5 88 7.3 45.2 9.51 0.374
06:39 1017 30.03 847 25.01 9.2 48.5 89 7.4 45.3 9.59 0.378
06:40 1017 30.03 847 25.01 9.2 48.6 89 7.5 45.4 9.59 0.378
06:41 1017 30.03 847 25.01 9.2 48.5 89 7.4 45.4 9.59 0.378
06:42 1017 30.03 847 25.01 9.3 48.7 89 7.5 45.4 9.62 0.379
06:43 1017 30.03 847 25.01 9.2 48.6 89 7.4 45.4 9.61 0.378
06:44 1018 30.06 847 25.01 9.3 48.7 89 7.5 45.6 9.63 0.379
06:45 1018 30.06 847 25.01 9.3 48.7 88 7.4 45.4 9.64 0.38
06:46 1018 30.06 847 25.01 9.3 48.7 88 7.4 45.4 9.62 0.379
06:47 1018 30.06 847 25.01 9.3 48.7 88 7.3 45.2 9.6 0.378
06:48 1018 30.06 847 25.01 9.3 48.8 88 7.4 45.3 9.64 0.38
06:49 1017 30.03 847 25.01 9.4 48.8 88 7.4 45.3 9.72 0.383
06:50 1017 30.03 847 25.01 9.4 48.8 87 7.3 45.2 9.66 0.38
06:51 1017 30.03 847 25.01 9.4 48.9 87 7.3 45.2 9.63 0.379
06:52 1017 30.03 847 25.01 9.4 48.9 87 7.3 45.2 9.72 0.383
06:53 1018 30.06 847 25.01 9.4 48.8 87 7.3 45.2 9.71 0.382
06:54 1018 30.06 847 25.01 9.4 48.8 87 7.3 45.2 9.68 0.381
06:55 1018 30.06 847 25.01 9.3 48.8 87 7.3 45.1 9.63 0.379
06:56 1018 30.06 847 25.01 9.3 48.7 87 7.3 45.1 9.63 0.379
06:57 1018 30.06 847 25.01 9.3 48.7 87 7.3 45.1 9.61 0.378
06:58 1018 30.06 847 25.01 9.2 48.6 87 7.2 45 9.57 0.377
06:59 1018 30.06 847 25.01 9.2 48.6 87 7.2 45 9.59 0.378
07:00 1018 30.06 847 25.01 9.3 48.7 87 7.2 44.9 9.59 0.378
07:01 1018 30.06 847 25.01 9.3 48.8 86 7.1 44.8 9.67 0.381
07:02 1018 30.06 847 25.01 9.5 49.1 85 7.1 44.8 9.75 0.384
07:03 1018 30.06 847 25.01 9.6 49.2 85 7.2 45 9.87 0.389
07:04 1018 30.06 847 25.01 9.7 49.4 85 7.3 45.1 9.95 0.392
07:05 1018 30.06 847 25.01 9.8 49.7 85 7.4 45.3 10.1 0.398
07:06 1018 30.06 847 25.01 10 50 84 7.5 45.5 10.29 0.405
07:07 1018 30.06 847 25.01 10.1 50.2 84 7.5 45.5 10.41 0.41
07:08 1018 30.06 847 25.01 10.2 50.4 84 7.6 45.8 10.5 0.413
07:09 1018 30.06 847 25.01 10.3 50.5 84 7.7 45.8 10.62 0.418
07:10 1018 30.06 847 25.01 10.4 50.7 84 7.8 46.1 10.72 0.422
07:11 1018 30.06 847 25.01 10.6 51 83 7.9 46.2 10.9 0.429
07:12 1018 30.06 847 25.01 10.8 51.4 83 8 46.5 11.11 0.437
07:13 1018 30.06 847 25.01 10.9 51.7 81 7.9 46.1 11.31 0.445
07:14 1018 30.06 847 25.01 11.1 52 82 8.2 46.8 11.49 0.452
07:15 1018 30.06 847 25.01 11.3 52.3 80 7.9 46.2 11.65 0.459
07:16 1018 30.06 847 25.01 11.3 52.3 80 8 46.5 11.61 0.457
07:17 1018 30.06 847 25.01 11.3 52.3 79 7.8 46.1 11.6 0.457
07:18 1018 30.06 847 25.01 11.3 52.3 79 7.8 46.1 11.61 0.457
07:19 1018 30.06 847 25.01 11.2 52.2 78 7.6 45.7 11.53 0.454
07:20 1018 30.06 847 25.01 11.2 52.2 79 7.8 46.1 11.47 0.452
07:21 1018 30.06 847 25.01 11.1 52 78 7.5 45.5 11.43 0.45
07:22 1018 30.06 847 25.01 11 51.9 80 7.7 45.9 11.38 0.448
07:23 1018 30.06 847 25.01 11 51.7 81 7.8 46 11.29 0.444
07:24 1018 30.06 847 25.01 10.9 51.6 80 7.5 45.6 11.3 0.445
07:25 1018 30.06 847 25.01 10.9 51.6 81 7.7 45.9 11.21 0.441
07:26 1018 30.06 847 25.01 10.8 51.4 81 7.7 45.8 11.2 0.441
07:27 1018 30.06 847 25.01 10.8 51.4 81 7.7 45.8 11.13 0.438
07:28 1018 30.06 847 25.01 10.8 51.4 81 7.6 45.7 11.14 0.439
07:29 1018 30.06 847 25.01 10.8 51.4 81 7.6 45.7 11.14 0.439
07:30 1018 30.06 847 25.01 10.7 51.3 81 7.7 45.9 11.1 0.437
07:31 1018 30.06 847 25.01 10.7 51.3 81 7.6 45.8 11.09 0.437
07:32 1018 30.06 848 25.04 10.7 51.3 81 7.6 45.7 11.06 0.435
07:33 1018 30.06 848 25.04 10.7 51.3 81 7.6 45.7 11.08 0.436
07:34 1018 30.06 848 25.04 10.7 51.3 81 7.6 45.7 11.09 0.437
07:35 1018 30.06 848 25.04 10.7 51.3 80 7.4 45.3 11.08 0.436
07:36 1018 30.06 848 25.04 10.8 51.4 81 7.7 45.9 11.18 0.44
07:37 1018 30.06 848 25.04 10.9 51.6 81 7.7 45.9 11.29 0.444
07:38 1018 30.06 848 25.04 10.9 51.7 81 7.9 46.2 11.34 0.446
07:39 1018 30.06 848 25.04 10.9 51.6 81 7.8 46 11.33 0.446
07:40 1018 30.06 848 25.04 10.9 51.6 82 8 46.3 11.28 0.444
07:41 1018 30.06 848 25.04 10.9 51.7 81 7.9 46.2 11.34 0.446
07:42 1018 30.06 848 25.04 11 51.7 79 7.5 45.6 11.36 0.447
07:43 1018 30.06 848 25.04 11 51.8 80 7.8 46 11.35 0.447
07:44 1018 30.06 848 25.04 11.1 51.9 80 7.7 45.9 11.41 0.449
07:45 1018 30.06 848 25.04 11.1 51.9 81 7.9 46.3 11.44 0.45
07:46 1018 30.06 848 25.04 11.1 52 81 8 46.4 11.53 0.454
07:47 1018 30.06 848 25.04 11.1 52.1 78 7.4 45.4 11.5 0.453
07:48 1018 30.06 848 25.04 11.2 52.2 81 8 46.4 11.58 0.456
07:49 1018 30.06 848 25.04 11.3 52.3 79 7.8 46.1 11.72 0.461
07:50 1018 30.06 848 25.04 11.5 52.7 80 8.1 46.6 11.98 0.472
07:51 1018 30.06 848 25.04 11.8 53.2 78 8.1 46.7 12.2 0.48
07:52 1018 30.06 848 25.04 12 53.5 78 8.2 46.8 12.37 0.487
07:53 1018 30.06 848 25.04 12.1 53.9 77 8.2 46.8 12.6 0.496
07:54 1018 30.06 848 25.04 12.2 54 77 8.4 47.1 12.63 0.497
07:55 1019 30.09 848 25.04 12.2 53.9 75 7.8 46.1 12.62 0.497
07:56 1019 30.09 848 25.04 12.1 53.7 77 8.1 46.6 12.45 0.49
07:57 1019 30.09 848 25.04 12 53.6 77 8.1 46.5 12.43 0.489
07:58 1019 30.09 848 25.04 11.9 53.5 78 8.2 46.8 12.33 0.485
07:59 1019 30.09 848 25.04 11.9 53.4 77 8 46.4 12.29 0.484
08:00 1019 30.09 848 25.04 11.9 53.5 75 7.6 45.7 12.37 0.487
08:01 1019 30.09 848 25.04 12 53.6 75 7.8 46 12.47 0.491
08:02 1019 30.09 848 25.04 12 53.6 76 7.9 46.2 12.46 0.491
08:03 1019 30.09 848 25.04 12 53.6 72 7.2 45 12.5 0.492
08:04 1019 30.09 848 25.04 12 53.7 74 7.6 45.7 12.5 0.492
08:05 1019 30.09 848 25.04 12 53.7 75 7.8 46 12.5 0.492
08:06 1019 30.09 848 25.04 12 53.5 76 7.9 46.2 12.43 0.489
08:07 1019 30.09 848 25.04 11.9 53.3 76 7.8 46.1 12.26 0.483
08:08 1019 30.09 848 25.04 11.7 53.1 79 8.2 46.7 12.15 0.478
08:09 1019 30.09 848 25.04 11.6 53 77 7.8 46.1 12.13 0.478
08:10 1019 30.09 848 25.04 11.6 52.9 79 8.1 46.5 12.04 0.474
08:11 1019 30.09 848 25.04 11.5 52.8 80 8.2 46.8 11.98 0.472
08:12 1019 30.09 848 25.04 11.5 52.7 81 8.4 47.1 12.01 0.473
08:13 1019 30.09 848 25.04 11.5 52.7 79 8 46.4 12 0.472
08:14 1019 30.09 848 25.04 11.5 52.7 79 8.1 46.5 11.94 0.47
08:15 1019 30.09 848 25.04 11.5 52.6 80 8.2 46.7 11.89 0.468
08:16 1019 30.09 848 25.04 11.4 52.5 80 8.2 46.7 11.85 0.467
08:17 1019 30.09 848 25.04 11.4 52.4 80 8.1 46.6 11.79 0.464
08:18 1019 30.09 848 25.04 11.3 52.3 81 8.1 46.6 11.73 0.462
08:19 1019 30.09 848 25.04 11.3 52.3 81 8.2 46.7 11.79 0.464
08:20 1019 30.09 848 25.04 11.3 52.3 81 8.2 46.7 11.74 0.462
08:21 1019 30.09 848 25.04 11.3 52.3 83 8.5 47.3 11.71 0.461
08:22 1019 30.09 848 25.04 11.3 52.4 81 8.1 46.6 11.75 0.463
08:23 1019 30.09 848 25.04 11.3 52.4 81 8.2 46.7 11.78 0.464
08:24 1019 30.09 848 25.04 11.4 52.5 81 8.3 46.9 11.86 0.467
08:25 1019 30.09 848 25.04 11.5 52.7 81 8.3 47 11.96 0.471
08:26 1019 30.09 848 25.04 11.5 52.8 81 8.5 47.3 11.97 0.471
08:27 1019 30.09 848 25.04 11.6 52.9 84 9 48.2 12.08 0.476
08:28 1019 30.09 848 25.04 11.8 53.2 81 8.6 47.4 12.19 0.48
08:29 1019 30.09 848 25.04 11.8 53.2 77 7.9 46.2 12.18 0.48
08:30 1019 30.09 848 25.04 11.8 53.2 79 8.3 47 12.18 0.48
08:31 1019 30.09 848 25.04 11.9 53.4 79 8.4 47.1 12.21 0.481
08:32 1019 30.09 848 25.04 12 53.5 78 8.3 47 12.35 0.486
08:33 1019 30.09 848 25.04 12.1 53.7 76 8.1 46.5 12.48 0.491
08:34 1019 30.09 848 25.04 12.2 54 78 8.5 47.3 12.64 0.498
08:35 1019 30.09 848 25.04 12.4 54.4 76 8.4 47.1 12.88 0.507
08:36 1019 30.09 848 25.04 12.7 54.9 79 9.1 48.4 13.09 0.515
08:37 1019 30.09 848 25.04 12.9 55.2 73 8.3 46.9 13.14 0.517
08:38 1019 30.09 848 25.04 13 55.4 74 8.6 47.5 13.21 0.52
08:39 1019 30.09 848 25.04 13.2 55.7 76 9.2 48.5 13.38 0.527
08:40 1019 30.09 848 25.04 13.3 56 71 8.3 46.9 13.56 0.534
08:41 1019 30.09 848 25.04 13.3 56 69 7.7 45.9 13.48 0.531
08:42 1019 30.09 848 25.04 13.3 56 70 8 46.4 13.41 0.528
08:43 1019 30.09 848 25.04 13.5 56.2 70 8.1 46.6 13.48 0.531
08:44 1019 30.09 848 25.04 13.5 56.3 71 8.4 47 13.61 0.536
08:45 1019 30.09 848 25.04 13.5 56.2 70 8.2 46.7 13.58 0.535
08:46 1019 30.09 848 25.04 13.4 56.1 69 7.9 46.2 13.45 0.53
08:47 1019 30.09 848 25.04 13.3 55.9 71 8.1 46.7 13.44 0.529
08:48 1019 30.09 848 25.04 13.3 55.9 71 8.1 46.6 13.46 0.53
08:49 1019 30.09 848 25.04 13.1 55.5 70 7.7 45.9 13.31 0.524
08:50 1019 30.09 848 25.04 12.9 55.3 72 8.1 46.6 13.2 0.52
08:51 1019 30.09 848 25.04 12.8 55 74 8.2 46.8 13.06 0.514
08:52 1019 30.09 848 25.04 12.6 54.6 74 8 46.4 12.94 0.509
08:53 1019 30.09 848 25.04 12.4 54.2 75 8 46.4 12.8 0.504
08:54 1019 30.09 848 25.04 12.3 54.1 77 8.4 47.1 12.7 0.5
08:55 1019 30.09 848 25.04 12.2 53.9 76 8 46.4 12.65 0.498
08:56 1019 30.09 848 25.04 12.1 53.8 77 8.2 46.7 12.61 0.496
08:57 1019 30.09 848 25.04 12.1 53.9 77 8.2 46.8 12.57 0.495
08:58 1018 30.06 848 25.04 12.2 53.9 77 8.3 46.9 12.69 0.5
08:59 1018 30.06 848 25.04 12.4 54.2 73 7.6 45.7 12.84 0.506
09:00 1019 30.09 848 25.04 12.5 54.4 74 7.9 46.3 13.03 0.513
09:01 1019 30.09 848 25.04 12.8 55 75 8.5 47.2 13.3 0.524
09:02 1019 30.09 848 25.04 13 55.5 71 7.9 46.2 13.56 0.534
09:03 1019 30.09 848 25.04 13.2 55.7 69 7.6 45.7 13.71 0.54
09:04 1019 30.09 848 25.04 13.1 55.6 71 8.1 46.6 13.68 0.539
09:05 1019 30.09 848 25.04 13.1 55.6 70 7.8 46.1 13.62 0.536
09:06 1019 30.09 848 25.04 13.1 55.5 70 7.7 45.9 13.61 0.536
09:07 1019 30.09 848 25.04 13 55.3 73 8.2 46.8 13.49 0.531
09:08 1019 30.09 848 25.04 13 55.4 75 8.6 47.5 13.62 0.536
09:09 1019 30.09 848 25.04 13.3 55.9 75 9 48.3 13.91 0.548
09:10 1019 30.09 848 25.04 13.5 56.2 73 8.7 47.7 14.07 0.554
09:11 1019 30.09 848 25.04 13.6 56.5 72 8.6 47.6 14.2 0.559
09:12 1019 30.09 848 25.04 13.6 56.4 69 8.1 46.6 14.14 0.557
09:13 1019 30.09 848 25.04 13.3 56 72 8.3 47 13.82 0.544
09:14 1019 30.09 848 25.04 13.1 55.5 70 7.9 46.2 13.57 0.534
09:15 1019 30.09 848 25.04 13 55.4 70 7.7 45.9 13.54 0.533
09:16 1019 30.09 848 25.04 12.9 55.3 71 7.9 46.2 13.49 0.531
09:17 1019 30.09 848 25.04 12.9 55.2 71 7.7 45.8 13.42 0.528
09:18 1019 30.09 848 25.04 12.9 55.1 70 7.6 45.8 13.37 0.526
09:19 1019 30.09 848 25.04 12.8 55 69 7.3 45.2 13.34 0.525
09:20 1019 30.09 848 25.04 12.9 55.2 69 7.4 45.3 13.44 0.529
09:21 1019 30.09 848 25.04 13.2 55.8 72 8.3 47 13.69 0.539
09:22 1019 30.09 848 25.04 13.5 56.4 71 8.4 47.1 14.06 0.554
09:23 1019 30.09 848 25.04 13.8 56.8 70 8.5 47.4 14.3 0.563
09:24 1019 30.09 848 25.04 13.8 56.9 67 7.8 46.1 14.32 0.564
09:25 1019 30.09 848 25.04 13.7 56.7 72 8.8 47.8 14.2 0.559
09:26 1019 30.09 848 25.04 13.7 56.6 69 8.1 46.7 14.24 0.561
09:27 1019 30.09 848 25.04 13.7 56.7 68 7.9 46.2 14.33 0.564
09:28 1019 30.09 848 25.04 13.7 56.6 67 7.6 45.7 14.21 0.559
09:29 1018 30.06 848 25.04 13.6 56.5 71 8.5 47.3 14.17 0.558
09:30 1018 30.06 848 25.04 13.6 56.5 69 8.1 46.5 14.18 0.558
09:31 1018 30.06 848 25.04 13.7 56.7 66 7.4 45.4 14.25 0.561
09:32 1018 30.06 847 25.01 14 57.1 68 8.2 46.8 14.46 0.569
09:33 1018 30.06 847 25.01 14.3 57.8 66 8 46.4 14.75 0.581
09:34 1018 30.06 847 25.01 14.7 58.4 64 7.9 46.2 15 0.591
09:35 1018 30.06 847 25.01 14.8 58.7 68 9 48.3 15.12 0.595
09:36 1018 30.06 847 25.01 14.9 58.8 70 9.6 49.2 15.11 0.595
09:37 1018 30.06 847 25.01 14.8 58.7 68 9 48.2 15.05 0.593
09:38 1018 30.06 847 25.01 14.5 58.2 67 8.5 47.2 14.75 0.581
09:39 1018 30.06 847 25.01 14.1 57.4 64 7.4 45.3 14.44 0.569
09:40 1018 30.06 847 25.01 13.9 56.9 66 7.6 45.7 14.2 0.559
09:41 1018 30.06 847 25.01 13.5 56.4 68 7.7 45.9 14.04 0.553
09:42 1018 30.06 847 25.01 13.5 56.2 74 9 48.2 14.02 0.552
09:43 1018 30.06 847 25.01 13.6 56.5 72 8.7 47.6 14.23 0.56
09:44 1018 30.06 847 25.01 13.7 56.7 70 8.5 47.2 14.39 0.567
09:45 1018 30.06 847 25.01 13.9 56.9 68 8.1 46.5 14.44 0.569
09:46 1018 30.06 847 25.01 14 57.2 71 8.8 47.8 14.56 0.573
09:47 1018 30.06 847 25.01 14.1 57.4 66 8 46.3 14.67 0.578
09:48 1018 30.06 847 25.01 14 57.2 66 7.9 46.2 14.56 0.573
09:49 1018 30.06 847 25.01 13.9 56.9 67 8 46.3 14.43 0.568
09:50 1018 30.06 847 25.01 13.7 56.6 66 7.5 45.5 14.27 0.562
09:51 1018 30.06 847 25.01 13.5 56.2 70 8.1 46.6 14.07 0.554
09:52 1018 30.06 847 25.01 13.3 56 69 7.9 46.2 13.91 0.548
09:53 1018 30.06 847 25.01 13.2 55.8 70 7.9 46.2 13.76 0.542
09:54 1018 30.06 848 25.04 13.2 55.7 68 7.5 45.5 13.64 0.537
09:55 1018 30.06 848 25.04 13.1 55.6 72 8.1 46.6 13.58 0.535
09:56 1018 30.06 847 25.01 13.1 55.5 71 7.9 46.2 13.57 0.534
09:57 1018 30.06 847 25.01 13.2 55.7 73 8.5 47.4 13.65 0.537
09:58 1018 30.06 847 25.01 13.2 55.7 71 8 46.4 13.65 0.537
09:59 1018 30.06 847 25.01 13.1 55.6 68 7.4 45.4 13.57 0.534
10:00 1018 30.06 847 25.01 13.1 55.6 69 7.5 45.5 13.52 0.532
10:01 1018 30.06 847 25.01 13.1 55.7 71 8.1 46.5 13.6 0.535
10:02 1018 30.06 847 25.01 13.2 55.7 68 7.5 45.6 13.66 0.538
10:03 1018 30.06 847 25.01 13.2 55.7 67 7.2 45 13.68 0.539
10:04 1018 30.06 847 25.01 13.2 55.7 67 7.2 45 13.66 0.538
10:05 1018 30.06 847 25.01 13.1 55.7 71 8.1 46.5 13.7 0.539
10:06 1018 30.06 847 25.01 13.2 55.7 71 8.1 46.6 13.72 0.54
10:07 1018 30.06 847 25.01 13.1 55.6 73 8.4 47 13.71 0.54
10:08 1018 30.06 847 25.01 13.1 55.6 73 8.4 47.2 13.74 0.541
10:09 1018 30.06 847 25.01 13.2 55.7 71 8.1 46.7 13.79 0.543
10:10 1018 30.06 847 25.01 13.2 55.7 69 7.7 45.9 13.81 0.544
10:11 1017 30.03 847 25.01 13.1 55.7 71 8.1 46.5 13.77 0.542
10:12 1017 30.03 847 25.01 13.2 55.7 70 7.9 46.2 13.81 0.544
10:13 1017 30.03 846 24.98 13.2 55.8 70 8 46.4 13.81 0.544
10:14 1017 30.03 846 24.98 13.5 56.2 68 7.8 46 13.87 0.546
10:15 1017 30.03 846 24.98 13.7 56.7 68 8 46.3 14.16 0.557
10:16 1017 30.03 846 24.98 13.9 57 72 8.9 48 14.29 0.563
10:17 1017 30.03 846 24.98 14 57.2 69 8.5 47.2 14.45 0.569
10:18 1017 30.03 846 24.98 14 57.1 66 7.9 46.1 14.32 0.564
10:19 1017 30.03 846 24.98 13.9 56.9 68 8.2 46.7 14.28 0.562
10:20 1017 30.03 846 24.98 13.8 56.8 67 7.8 46.1 14.12 0.556
10:21 1017 30.03 846 24.98 13.8 56.9 68 8.2 46.7 14.18 0.558
10:22 1017 30.03 846 24.98 14 57.1 64 7.4 45.3 14.29 0.563
10:23 1017 30.03 846 24.98 14 57.1 72 9 48.3 14.27 0.562
10:24 1017 30.03 846 24.98 14 57.1 68 8.3 46.9 14.29 0.563
10:25 1017 30.03 846 24.98 13.9 57 68 8.2 46.8 14.21 0.559
10:26 1017 30.03 846 24.98 13.9 57 67 8 46.4 14.19 0.559
10:27 1017 30.03 846 24.98 13.9 56.9 64 7.3 45.1 14.15 0.557
10:28 1017 30.03 846 24.98 14 57.1 70 8.5 47.3 14.26 0.561
10:29 1017 30.03 846 24.98 14 57.2 67 8 46.3 14.32 0.564
10:30 1017 30.03 846 24.98 14.2 57.5 65 7.7 45.9 14.48 0.57
10:31 1017 30.03 846 24.98 14.4 57.8 66 8.2 46.7 14.67 0.578
10:32 1017 30.03 846 24.98 14.5 58.1 65 8.1 46.6 14.79 0.582
10:33 1017 30.03 846 24.98 14.6 58.2 68 8.8 47.8 14.72 0.58
10:34 1017 30.03 846 24.98 14.6 58.3 71 9.4 49 14.91 0.587
10:35 1017 30.03 846 24.98 14.8 58.7 65 8.4 47.2 15.12 0.595
10:36 1017 30.03 846 24.98 15 59.1 65 8.5 47.3 15.36 0.605
10:37 1017 30.03 846 24.98 15.2 59.4 68 9.5 49 15.52 0.611
10:38 1017 30.03 846 24.98 15.3 59.5 63 8.3 47 15.46 0.609
10:39 1017 30.03 846 24.98 15.1 59.2 64 8.4 47 15.26 0.601
10:40 1017 30.03 846 24.98 14.9 58.8 63 7.9 46.3 15.05 0.593
10:41 1017 30.03 846 24.98 14.8 58.7 61 7.5 45.5 14.94 0.588
10:42 1017 30.03 846 24.98 14.8 58.7 64 8.2 46.8 15.06 0.593
10:43 1017 30.03 846 24.98 15 59 66 8.7 47.6 15.27 0.601
10:44 1017 30.03 846 24.98 15.1 59.1 61 7.5 45.6 15.27 0.601
10:45 1017 30.03 846 24.98 15.1 59.1 65 8.6 47.5 15.27 0.601
10:46 1017 30.03 846 24.98 15.2 59.3 66 9 48.2 15.48 0.609
10:47 1017 30.03 846 24.98 15.3 59.5 62 8.2 46.7 15.47 0.609
10:48 1017 30.03 846 24.98 15.3 59.5 63 8.3 46.9 15.4 0.606
10:49 1017 30.03 846 24.98 15.2 59.3 71 10.1 50.1 15.34 0.604
10:50 1017 30.03 846 24.98 15.3 59.5 65 8.7 47.7 15.55 0.612
10:51 1017 30.03 846 24.98 15.4 59.7 68 9.5 49.1 15.65 0.616
10:52 1017 30.03 846 24.98 15.5 59.9 62 8.3 46.9 15.67 0.617
10:53 1017 30.03 846 24.98 15.4 59.8 67 9.5 49.1 15.58 0.613
10:54 1017 30.03 846 24.98 15.4 59.7 66 9.1 48.3 15.53 0.611
10:55 1017 30.03 846 24.98 15.4 59.6 64 8.8 47.8 15.58 0.613
10:56 1017 30.03 846 24.98 15.4 59.7 70 10 50 15.72 0.619
10:57 1017 30.03 846 24.98 15.6 60 62 8.4 47.1 15.85 0.624
10:58 1017 30.03 846 24.98 15.6 60.1 65 9.1 48.4 15.86 0.624
10:59 1017 30.03 846 24.98 15.7 60.2 67 9.5 49.2 15.88 0.625
11:00 1017 30.03 846 24.98 15.8 60.5 71 10.7 51.3 16.05 0.632
11:01 1017 30.03 846 24.98 15.9 60.7 67 9.8 49.6 16.12 0.635
11:02 1017 30.03 846 24.98 15.9 60.6 62 8.6 47.5 16.03 0.631
11:03 1017 30.03 846 24.98 15.8 60.5 66 9.6 49.3 15.94 0.628
11:04 1017 30.03 846 24.98 15.8 60.4 64 8.9 48.1 15.85 0.624
11:05 1016 30 846 24.98 15.7 60.2 67 9.6 49.3 15.9 0.626
11:06 1016 30 846 24.98 15.7 60.3 64 8.9 48.1 15.97 0.629
11:07 1017 30.03 846 24.98 15.8 60.5 61 8.4 47.1 16.07 0.633
11:08 1016 30 846 24.98 15.9 60.7 59 8 46.4 15.99 0.63
11:09 1017 30.03 846 24.98 16 60.7 70 10.6 51 16.13 0.635
11:10 1017 30.03 846 24.98 16.1 60.9 64 9.4 49 16.29 0.641
11:11 1017 30.03 846 24.98 16.1 61 62 8.9 47.9 16.23 0.639
11:12 1017 30.03 846 24.98 16.1 60.9 66 9.8 49.6 16.2 0.638
11:13 1017 30.03 846 24.98 16.2 61.1 67 10 50 16.28 0.641
11:14 1017 30.03 846 24.98 16.2 61.1 67 10.2 50.3 16.28 0.641
11:15 1017 30.03 846 24.98 16.2 61.2 60 8.6 47.6 16.36 0.644
11:16 1017 30.03 846 24.98 16.4 61.4 68 10.4 50.7 16.37 0.644
11:17 1017 30.03 846 24.98 16.3 61.3 62 9.1 48.3 16.31 0.642
11:18 1017 30.03 846 24.98 16.1 60.9 64 9.4 48.9 16.12 0.635
11:19 1017 30.03 846 24.98 16 60.8 70 10.7 51.2 16.11 0.634
11:20 1017 30.03 846 24.98 16 60.9 66 9.8 49.7 16.24 0.639
11:21 1017 30.03 846 24.98 16.1 61.1 63 9.2 48.6 16.28 0.641
11:22 1016 30 846 24.98 16.2 61.1 64 9.3 48.8 16.26 0.64
11:23 1016 30 846 24.98 16.1 61.1 64 9.4 48.9 16.21 0.638
11:24 1016 30 846 24.98 16.2 61.1 67 10.2 50.4 16.3 0.642
11:25 1016 30 846 24.98 16.2 61.1 67 10 50.1 16.36 0.644
11:26 1016 30 846 24.98 16.2 61.1 61 8.6 47.5 16.27 0.641
11:27 1016 30 846 24.98 16.1 61.1 64 9.4 48.9 16.23 0.639
11:28 1016 30 846 24.98 16.1 60.9 65 9.6 49.3 16.1 0.634
11:29 1016 30 846 24.98 15.9 60.6 70 10.6 51.1 16.01 0.63
11:30 1016 30 846 24.98 15.9 60.5 65 9.4 48.8 15.97 0.629
11:31 1016 30 846 24.98 15.9 60.5 71 10.7 51.2 16.03 0.631
11:32 1016 30 846 24.98 16 60.7 66 9.7 49.5 16.05 0.632
11:33 1016 30 846 24.98 16.1 61 69 10.5 50.9 16.18 0.637
11:34 1016 30 846 24.98 16.3 61.3 63 9.3 48.8 16.54 0.651
11:35 1016 30 845 24.95 16.3 61.4 65 9.8 49.7 16.49 0.649
11:36 1016 30 845 24.95 16.2 61.2 65 9.8 49.6 16.41 0.646
11:37 1016 30 845 24.95 16.1 61 63 9.1 48.3 16.2 0.638
11:38 1016 30 845 24.95 15.9 60.7 66 9.8 49.6 16.03 0.631
11:39 1016 30 845 24.95 15.9 60.6 67 9.9 49.8 16.08 0.633
11:40 1016 30 845 24.95 15.9 60.7 67 9.8 49.7 16.07 0.633
11:41 1016 30 845 24.95 15.8 60.4 66 9.5 49.1 15.9 0.626
11:42 1016 30 845 24.95 15.6 60.1 65 9.1 48.4 15.82 0.623
11:43 1016 30 845 24.95 15.6 60.2 71 10.4 50.8 15.87 0.625
11:44 1016 30 845 24.95 15.8 60.4 70 10.3 50.6 16.14 0.635
11:45 1016 30 845 24.95 16 60.8 74 11.4 52.5 16.35 0.644
11:46 1016 30 845 24.95 16.3 61.3 64 9.5 49 16.55 0.652
11:47 1016 30 845 24.95 16.3 61.4 66 10 50 16.54 0.651
11:48 1016 30 845 24.95 16.5 61.7 61 9 48.1 16.76 0.66
11:49 1016 30 845 24.95 16.6 61.8 62 9.3 48.7 16.67 0.656
11:50 1016 30 845 24.95 16.5 61.7 65 10 50 16.63 0.655
11:51 1016 30 845 24.95 16.5 61.7 61 8.9 48.1 16.5 0.65
11:52 1016 30 845 24.95 16.3 61.3 63 9.4 48.8 16.37 0.644
11:53 1016 30 845 24.95 16.2 61.1 66 10 49.9 16.27 0.641
11:54 1016 30 845 24.95 16.2 61.2 66 9.9 49.9 16.4 0.646
11:55 1016 30 845 24.95 16.2 61.1 61 8.8 47.9 16.39 0.645
11:56 1016 30 845 24.95 16.2 61.1 65 9.6 49.2 16.4 0.646
11:57 1016 30 845 24.95 16.3 61.3 68 10.5 50.8 16.59 0.653
11:58 1016 30 845 24.95 16.5 61.7 59 8.6 47.6 16.66 0.656
11:59 1016 30 845 24.95 16.5 61.7 70 11 51.9 16.59 0.653
12:00 1016 30 845 24.95 16.4 61.5 64 9.6 49.3 16.56 0.652
12:01 1016 30 845 24.95 16.3 61.4 59 8.4 47.2 16.38 0.645
12:02 1016 30 845 24.95 16.3 61.3 65 9.8 49.7 16.32 0.643
12:03 1016 30 845 24.95 16.3 61.4 61 9 48.2 16.48 0.649
12:04 1016 30 845 24.95 16.4 61.5 64 9.6 49.4 16.62 0.654
12:05 1016 30 845 24.95 16.5 61.6 60 8.8 47.8 16.72 0.658
12:06 1016 30 845 24.95 16.5 61.7 64 9.8 49.6 16.79 0.661
12:07 1016 30 845 24.95 16.5 61.7 59 8.5 47.4 16.74 0.659
12:08 1016 30 845 24.95 16.3 61.3 63 9.2 48.6 16.61 0.654
12:09 1016 30 845 24.95 16.2 61.2 67 10.2 50.4 16.6 0.654
12:10 1016 30 845 24.95 16.3 61.3 62 9.1 48.4 16.6 0.654
12:11 1016 30 845 24.95 16.2 61.2 62 8.9 48 16.5 0.65
12:12 1016 30 845 24.95 16.2 61.1 59 8.1 46.6 16.38 0.645
12:13 1016 30 845 24.95 16.1 60.9 61 8.6 47.5 16.21 0.638
12:14 1016 30 845 24.95 16.1 61 59 8.1 46.6 16.34 0.643
12:15 1016 30 845 24.95 16.1 61 63 9.2 48.6 16.37 0.644
12:16 1016 30 845 24.95 16.2 61.1 67 10.1 50.1 16.4 0.646
12:17 1016 30 845 24.95 16.2 61.2 66 9.9 49.7 16.51 0.65
12:18 1016 30 845 24.95 16.2 61.1 60 8.5 47.3 16.48 0.649
12:19 1016 30 845 24.95 16.1 60.9 67 9.9 49.9 16.4 0.646
12:20 1016 30 845 24.95 16.1 61 65 9.5 49.1 16.44 0.647
12:21 1016 30 845 24.95 16.1 60.9 66 9.9 49.8 16.46 0.648
12:22 1016 30 845 24.95 16.2 61.1 62 9.1 48.4 16.56 0.652
12:23 1016 30 845 24.95 16.2 61.2 59 8.3 46.9 16.59 0.653
12:24 1016 30 845 24.95 16.4 61.4 63 9.3 48.7 16.62 0.654
12:25 1016 30 845 24.95 16.5 61.6 64 9.8 49.7 16.72 0.658
12:26 1016 30 845 24.95 16.6 61.8 63 9.7 49.4 16.82 0.662
12:27 1016 30 845 24.95 16.5 61.8 64 9.7 49.5 16.77 0.66
12:28 1016 30 845 24.95 16.4 61.6 59 8.6 47.5 16.75 0.659
12:29 1016 30 845 24.95 16.4 61.5 60 8.7 47.7 16.66 0.656
12:30 1016 30 845 24.95 16.4 61.5 61 8.9 48.1 16.76 0.66
12:31 1016 30 845 24.95 16.5 61.6 68 10.5 51 16.93 0.667
12:32 1016 30 845 24.95 16.6 61.9 69 11 51.7 17.03 0.67
12:33 1016 30 845 24.95 16.8 62.3 65 10.4 50.7 17.25 0.679
12:34 1016 30 845 24.95 16.9 62.5 64 10.3 50.5 17.34 0.683
12:35 1016 30 845 24.95 16.9 62.3 61 9.4 49 17.22 0.678
12:36 1016 30 845 24.95 16.7 62.1 67 10.7 51.3 17.09 0.673
12:37 1016 30 845 24.95 16.7 62.1 65 10.3 50.5 17.12 0.674
12:38 1016 30 845 24.95 16.7 62 66 10.5 50.9 17.07 0.672
12:39 1016 30 845 24.95 16.6 61.8 68 10.7 51.3 16.98 0.669
12:40 1016 30 845 24.95 16.6 61.9 67 10.6 51 17.06 0.672
12:41 1016 30 845 24.95 16.7 62 62 9.4 49 17.05 0.671
12:42 1016 30 845 24.95 16.6 61.9 67 10.4 50.7 16.98 0.669
12:43 1016 30 845 24.95 16.6 61.9 66 10.4 50.7 17.04 0.671
12:44 1016 30 845 24.95 16.7 62.1 67 10.6 51.2 17.14 0.675
12:45 1016 30 845 24.95 16.8 62.2 66 10.4 50.7 17.18 0.676
12:46 1016 30 845 24.95 16.7 62.1 63 9.7 49.5 17.12 0.674
12:47 1016 30 845 24.95 16.9 62.4 73 12.1 53.7 17.28 0.68
12:48 1015 29.97 845 24.95 17.1 62.9 68 11.3 52.3 17.52 0.69
12:49 1015 29.97 845 24.95 17.3 63.2 67 11.2 52.2 17.48 0.688
12:50 1015 29.97 845 24.95 17.3 63.1 59 9.3 48.8 17.44 0.687
12:51 1015 29.97 845 24.95 17.1 62.7 64 10.2 50.3 17.22 0.678
12:52 1015 29.97 845 24.95 16.9 62.4 68 10.9 51.6 17.02 0.67
12:53 1015 29.97 845 24.95 16.8 62.2 69 11.2 52.1 16.96 0.668
12:54 1015 29.97 845 24.95 16.8 62.2 65 10.3 50.5 16.99 0.669
12:55 1015 29.97 845 24.95 16.9 62.4 62 9.6 49.3 17 0.669
12:56 1015 29.97 845 24.95 16.9 62.5 71 11.7 53 17.08 0.672
12:57 1015 29.97 845 24.95 17.2 62.9 67 11.1 52 17.36 0.683
12:58 1015 29.97 845 24.95 17.3 63.1 63 10.3 50.5 17.58 0.692
12:59 1015 29.97 844 24.92 17.3 63.1 66 10.9 51.7 17.57 0.692
13:00 1015 29.97 844 24.92 17.2 63 61 9.6 49.4 17.55 0.691
13:01 1015 29.97 844 24.92 17.2 63 68 11.3 52.3 17.55 0.691
13:02 1015 29.97 844 24.92 17.2 63 67 11 51.8 17.52 0.69
13:03 1015 29.97 844 24.92 17.1 62.8 63 10.2 50.4 17.34 0.683
13:04 1015 29.97 845 24.95 17 62.6 65 10.4 50.7 17.18 0.676
13:05 1015 29.97 845 24.95 16.8 62.2 64 10.1 50.1 16.97 0.668
13:06 1015 29.97 845 24.95 16.6 61.8 66 10.2 50.3 16.84 0.663
13:07 1015 29.97 845 24.95 16.4 61.4 64 9.6 49.3 16.64 0.655
13:08 1015 29.97 845 24.95 16.2 61.1 67 10.2 50.3 16.51 0.65
13:09 1015 29.97 845 24.95 16 60.8 65 9.5 49.1 16.39 0.645
13:10 1015 29.97 845 24.95 15.9 60.6 71 10.7 51.2 16.33 0.643
13:11 1015 29.97 845 24.95 15.9 60.6 67 9.7 49.5 16.32 0.643
13:12 1015 29.97 845 24.95 15.8 60.5 70 10.4 50.7 16.24 0.639
13:13 1015 29.97 845 24.95 15.8 60.4 63 8.7 47.7 16.21 0.638
13:14 1015 29.97 845 24.95 15.7 60.2 62 8.5 47.3 16.04 0.631
13:15 1015 29.97 845 24.95 15.6 60.1 67 9.6 49.3 15.95 0.628
13:16 1015 29.97 845 24.95 15.5 59.9 66 9.3 48.7 15.97 0.629
13:17 1015 29.97 845 24.95 15.5 59.8 68 9.6 49.3 15.88 0.625
13:18 1015 29.97 845 24.95 15.4 59.8 71 10.3 50.5 15.88 0.625
13:19 1015 29.97 845 24.95 15.4 59.6 69 9.7 49.4 15.83 0.623
13:20 1015 29.97 845 24.95 15.3 59.5 70 9.9 49.8 15.78 0.621
13:21 1015 29.97 845 24.95 15.3 59.5 71 10.1 50.2 15.73 0.619
13:22 1015 29.97 845 24.95 15.3 59.5 64 8.5 47.4 15.66 0.617
13:23 1015 29.97 845 24.95 15.2 59.4 68 9.5 49.1 15.64 0.616
13:24 1015 29.97 845 24.95 15.3 59.5 66 9 48.3 15.7 0.618
13:25 1015 29.97 845 24.95 15.3 59.5 70 9.8 49.7 15.73 0.619
13:26 1015 29.97 845 24.95 15.3 59.6 67 9.3 48.7 15.8 0.622
13:27 1015 29.97 844 24.92 15.4 59.7 69 9.7 49.5 15.83 0.623
13:28 1015 29.97 844 24.92 15.5 59.8 71 10.2 50.4 15.87 0.625
13:29 1015 29.97 844 24.92 15.5 60 67 9.4 49 15.96 0.628
13:30 1015 29.97 844 24.92 15.7 60.2 65 9.1 48.5 16.07 0.633
13:31 1015 29.97 844 24.92 15.8 60.4 69 10.3 50.5 16.17 0.637
13:32 1015 29.97 844 24.92 15.9 60.6 68 10 50.1 16.32 0.643
13:33 1015 29.97 844 24.92 16.1 61 63 9.1 48.5 16.47 0.648
13:34 1015 29.97 844 24.92 16.2 61.2 64 9.4 48.9 16.52 0.65
13:35 1015 29.97 844 24.92 16.4 61.4 62 9.2 48.5 16.61 0.654
13:36 1015 29.97 844 24.92 16.4 61.6 58 8.2 46.8 16.66 0.656
13:37 1015 29.97 844 24.92 16.5 61.7 58 8.4 47.2 16.79 0.661
13:38 1015 29.97 844 24.92 16.6 61.9 56 8 46.3 16.75 0.659
13:39 1015 29.97 844 24.92 16.6 61.8 62 9.4 48.9 16.73 0.659
13:40 1015 29.97 844 24.92 16.6 61.8 60 8.8 47.8 16.81 0.662
13:41 1015 29.97 844 24.92 16.5 61.7 64 9.8 49.6 16.82 0.662
13:42 1015 29.97 844 24.92 16.4 61.6 66 10.1 50.3 16.8 0.661
13:43 1015 29.97 844 24.92 16.4 61.6 63 9.5 49.1 16.74 0.659
13:44 1015 29.97 844 24.92 16.4 61.5 64 9.5 49.2 16.72 0.658
13:45 1015 29.97 844 24.92 16.4 61.5 63 9.4 48.9 16.74 0.659
13:46 1015 29.97 844 24.92 16.3 61.3 61 8.9 48 16.69 0.657
13:47 1015 29.97 844 24.92 16.2 61.1 68 10.2 50.4 16.58 0.653
13:48 1015 29.97 844 24.92 16.1 60.9 67 10.1 50.2 16.48 0.649
13:49 1015 29.97 844 24.92 16 60.8 66 9.8 49.7 16.42 0.646
13:50 1015 29.97 844 24.92 16 60.7 66 9.6 49.3 16.35 0.644
13:51 1015 29.97 844 24.92 15.9 60.6 69 10.2 50.3 16.28 0.641
13:52 1015 29.97 844 24.92 15.8 60.5 68 9.9 49.8 16.21 0.638
13:53 1015 29.97 844 24.92 15.7 60.3 66 9.4 48.9 16.14 0.635
13:54 1015 29.97 844 24.92 15.7 60.2 67 9.5 49.1 16.02 0.631
13:55 1015 29.97 844 24.92 15.6 60.1 68 9.7 49.4 15.95 0.628
13:56 1015 29.97 844 24.92 15.6 60 71 10.5 50.8 15.95 0.628
13:57 1015 29.97 844 24.92 15.5 60 69 9.9 49.8 15.92 0.627
13:58 1015 29.97 844 24.92 15.5 59.8 69 9.8 49.6 15.87 0.625
13:59 1015 29.97 844 24.92 15.4 59.7 69 9.9 49.8 15.81 0.622
14:00 1015 29.97 844 24.92 15.4 59.7 72 10.4 50.8 15.8 0.622
14:01 1015 29.97 845 24.95 15.3 59.6 73 10.5 50.9 15.78 0.621
14:02 1015 29.97 844 24.92 15.3 59.6 71 10.1 50.1 15.72 0.619
14:03 1015 29.97 845 24.95 15.3 59.5 71 10.1 50.2 15.71 0.619
14:04 1015 29.97 845 24.95 15.3 59.6 73 10.6 51.1 15.71 0.619
14:05 1015 29.97 844 24.92 15.3 59.6 73 10.7 51.2 15.78 0.621
14:06 1015 29.97 844 24.92 15.4 59.7 73 10.7 51.3 15.79 0.622
14:07 1015 29.97 844 24.92 15.4 59.8 72 10.4 50.7 15.81 0.622
14:08 1015 29.97 844 24.92 15.5 59.9 70 10.1 50.2 15.91 0.626
14:09 1015 29.97 844 24.92 15.7 60.2 71 10.4 50.7 16.04 0.631
14:10 1015 29.97 844 24.92 15.9 60.5 67 9.9 49.7 16.2 0.638
14:11 1015 29.97 844 24.92 15.9 60.6 72 11 51.7 16.27 0.641
14:12 1015 29.97 844 24.92 15.9 60.6 73 11 51.8 16.29 0.641
14:13 1015 29.97 844 24.92 15.9 60.6 70 10.5 50.9 16.27 0.641
14:14 1015 29.97 844 24.92 15.8 60.5 72 10.7 51.3 16.26 0.64
14:15 1015 29.97 844 24.92 15.8 60.4 70 10.3 50.6 16.14 0.635
14:16 1015 29.97 845 24.95 15.7 60.2 70 10.2 50.3 16.08 0.633
14:17 1015 29.97 845 24.95 15.6 60 71 10.3 50.6 15.99 0.63
14:18 1015 29.97 845 24.95 15.5 60 71 10.3 50.6 15.95 0.628
14:19 1015 29.97 845 24.95 15.5 59.8 69 10 49.9 15.87 0.625
14:20 1015 29.97 845 24.95 15.5 59.8 69 9.9 49.7 15.83 0.623
14:21 1016 30 845 24.95 15.5 59.9 73 10.7 51.2 15.88 0.625
14:22 1016 30 845 24.95 15.6 60 72 10.6 51.1 15.98 0.629
14:23 1016 30 845 24.95 15.7 60.2 71 10.4 50.8 16.08 0.633
14:24 1016 30 845 24.95 15.8 60.4 74 11.3 52.3 16.18 0.637
14:25 1016 30 845 24.95 15.9 60.5 69 10.3 50.6 16.31 0.642
14:26 1016 30 845 24.95 15.9 60.6 70 10.4 50.7 16.21 0.638
14:27 1016 30 845 24.95 15.8 60.5 71 10.6 51 16.17 0.637
14:28 1016 30 845 24.95 15.8 60.4 71 10.5 50.9 16.11 0.634
14:29 1016 30 845 24.95 15.7 60.2 69 10 50.1 16.03 0.631
14:30 1016 30 845 24.95 15.6 60.1 68 9.9 49.8 16.02 0.631
14:31 1016 30 845 24.95 15.7 60.2 71 10.5 50.9 16 0.63
14:32 1016 30 845 24.95 15.7 60.2 70 10.3 50.5 16.03 0.631
14:33 1016 30 845 24.95 15.7 60.3 68 9.8 49.6 16.03 0.631
14:34 1016 30 845 24.95 15.7 60.3 68 9.9 49.9 16.02 0.631
14:35 1016 30 845 24.95 15.7 60.3 66 9.6 49.2 16.05 0.632
14:36 1015 29.97 845 24.95 15.7 60.3 69 10.1 50.2 15.99 0.63
14:37 1015 29.97 845 24.95 15.7 60.3 67 9.7 49.5 16.03 0.631
14:38 1015 29.97 845 24.95 15.8 60.4 68 10 50 16.05 0.632
14:39 1015 29.97 845 24.95 15.8 60.5 68 10.1 50.1 16.14 0.635
14:40 1015 29.97 844 24.92 16 60.7 65 9.4 48.9 16.21 0.638
14:41 1015 29.97 844 24.92 16 60.8 66 9.7 49.5 16.25 0.64
14:42 1015 29.97 844 24.92 16 60.8 62 8.7 47.7 16.29 0.641
14:43 1015 29.97 844 24.92 16 60.8 65 9.4 48.9 16.18 0.637
14:44 1015 29.97 844 24.92 15.9 60.7 62 8.6 47.5 16.14 0.635
14:45 1015 29.97 844 24.92 15.9 60.7 60 8.2 46.8 16.16 0.636
14:46 1015 29.97 844 24.92 15.9 60.7 60 8.2 46.7 16.18 0.637
14:47 1015 29.97 844 24.92 16 60.8 61 8.7 47.6 16.2 0.638
14:48 1015 29.97 844 24.92 16 60.9 62 8.8 47.8 16.3 0.642
14:49 1015 29.97 844 24.92 16.1 60.9 64 9.3 48.8 16.36 0.644
14:50 1015 29.97 844 24.92 16.1 61 62 8.8 47.9 16.35 0.644
14:51 1015 29.97 844 24.92 16.2 61.2 58 8.1 46.6 16.49 0.649
14:52 1015 29.97 844 24.92 16.4 61.5 64 9.7 49.4 16.67 0.656
14:53 1015 29.97 844 24.92 16.6 61.9 59 8.8 47.8 16.9 0.665
14:54 1015 29.97 844 24.92 16.7 62.1 59 8.8 47.8 17.03 0.67
14:55 1015 29.97 844 24.92 16.8 62.2 55 7.9 46.1 16.98 0.669
14:56 1015 29.97 844 24.92 16.7 62 61 9.3 48.7 16.95 0.667
14:57 1015 29.97 844 24.92 16.7 62 64 10 49.9 16.93 0.667
14:58 1015 29.97 844 24.92 16.6 61.9 61 9.3 48.7 16.88 0.665
14:59 1015 29.97 844 24.92 16.7 62 65 10.2 50.3 16.98 0.669
15:00 1015 29.97 844 24.92 16.8 62.3 55 7.8 46.1 17.1 0.673
15:01 1015 29.97 844 24.92 16.7 62.1 60 9 48.3 16.95 0.667
15:02 1015 29.97 844 24.92 16.7 62 59 8.8 47.9 17.01 0.67
15:03 1015 29.97 844 24.92 16.6 61.9 64 9.9 49.9 16.92 0.666
15:04 1015 29.97 844 24.92 16.5 61.8 61 9.1 48.4 16.84 0.663
15:05 1015 29.97 844 24.92 16.6 61.8 67 10.5 50.9 16.84 0.663
15:06 1015 29.97 844 24.92 16.6 61.9 64 9.9 49.9 16.85 0.663
15:07 1015 29.97 844 24.92 16.6 61.9 67 10.6 51.1 16.93 0.667
15:08 1015 29.97 844 24.92 16.7 62 64 9.8 49.7 16.96 0.668
15:09 1015 29.97 844 24.92 16.6 62 66 10.2 50.4 17.03 0.67
15:10 1015 29.97 844 24.92 16.7 62 65 10.1 50.3 17.02 0.67
15:11 1015 29.97 844 24.92 16.7 62 64 10 50 16.99 0.669
15:12 1015 29.97 844 24.92 16.7 62 60 9.1 48.3 16.95 0.667
15:13 1015 29.97 844 24.92 16.6 61.8 58 8.3 47 16.83 0.663
15:14 1015 29.97 844 24.92 16.4 61.6 62 9.3 48.8 16.71 0.658
15:15 1015 29.97 844 24.92 16.3 61.4 62 9.2 48.5 16.69 0.657
15:16 1015 29.97 844 24.92 16.3 61.4 60 8.6 47.5 16.6 0.654
15:17 1015 29.97 844 24.92 16.3 61.3 60 8.5 47.4 16.49 0.649
15:18 1015 29.97 845 24.95 16.3 61.3 62 9 48.2 16.48 0.649
15:19 1015 29.97 845 24.95 16.4 61.5 59 8.5 47.4 16.56 0.652
15:20 1015 29.97 845 24.95 16.4 61.5 61 9.1 48.3 16.6 0.654
15:21 1015 29.97 844 24.92 16.4 61.6 60 8.6 47.5 16.62 0.654
15:22 1015 29.97 844 24.92 16.5 61.7 58 8.4 47 16.66 0.656
15:23 1015 29.97 844 24.92 16.4 61.6 54 7.3 45.2 16.59 0.653
15:24 1015 29.97 844 24.92 16.4 61.6 56 7.8 46.1 16.62 0.654
15:25 1015 29.97 844 24.92 16.4 61.5 58 8.2 46.7 16.6 0.654
15:26 1015 29.97 844 24.92 16.5 61.7 60 8.7 47.7 16.75 0.659
15:27 1015 29.97 844 24.92 16.7 62.1 56 8.1 46.5 16.99 0.669
15:28 1015 29.97 844 24.92 16.9 62.4 55 7.8 46 17.18 0.676
15:29 1015 29.97 845 24.95 17 62.6 54 7.9 46.1 17.21 0.678
15:30 1015 29.97 845 24.95 16.9 62.4 54 7.6 45.7 17.09 0.673
15:31 1015 29.97 845 24.95 16.7 62.1 52 6.9 44.5 16.9 0.665
15:32 1015 29.97 844 24.92 16.6 61.9 56 7.9 46.2 16.8 0.661
15:33 1015 29.97 844 24.92 16.5 61.7 60 8.8 47.9 16.69 0.657
15:34 1015 29.97 844 24.92 16.4 61.5 62 9.1 48.3 16.61 0.654
15:35 1015 29.97 845 24.95 16.3 61.4 60 8.5 47.4 16.56 0.652
15:36 1015 29.97 845 24.95 16.2 61.1 62 9 48.2 16.47 0.648
15:37 1015 29.97 845 24.95 16.1 60.9 64 9.2 48.6 16.37 0.644
15:38 1016 30 845 24.95 15.9 60.6 61 8.5 47.3 16.23 0.639
15:39 1016 30 845 24.95 15.7 60.2 61 8.2 46.7 15.92 0.627
15:40 1016 30 845 24.95 15.4 59.7 60 7.7 45.8 15.61 0.615
15:41 1016 30 845 24.95 15.1 59.1 61 7.7 45.8 15.32 0.603
15:42 1016 30 845 24.95 14.8 58.6 63 7.9 46.2 15.14 0.596
15:43 1016 30 845 24.95 14.6 58.3 64 8 46.4 14.93 0.588
15:44 1016 30 845 24.95 14.4 57.9 64 7.7 45.8 14.74 0.58
15:45 1016 30 845 24.95 14.2 57.6 64 7.7 45.9 14.57 0.574
15:46 1016 30 845 24.95 14.1 57.3 64 7.4 45.3 14.43 0.568
15:47 1016 30 845 24.95 14 57.2 64 7.4 45.2 14.34 0.565
15:48 1016 30 845 24.95 13.9 57 65 7.6 45.7 14.25 0.561
15:49 1016 30 845 24.95 13.9 56.9 65 7.4 45.4 14.2 0.559
15:50 1016 30 845 24.95 13.8 56.8 66 7.6 45.6 14.2 0.559
15:51 1016 30 845 24.95 13.8 56.8 65 7.4 45.3 14.21 0.559
15:52 1016 30 845 24.95 13.8 56.8 65 7.4 45.3 14.16 0.557
15:53 1016 30 845 24.95 13.7 56.7 66 7.6 45.7 14.04 0.553
15:54 1016 30 845 24.95 13.6 56.5 66 7.5 45.4 13.99 0.551
15:55 1016 30 845 24.95 13.5 56.2 66 7.2 45 13.85 0.545
15:56 1016 30 846 24.98 13.3 56 67 7.4 45.2 13.69 0.539
15:57 1017 30.03 846 24.98 13.2 55.7 67 7.1 44.9 13.59 0.535
15:58 1017 30.03 846 24.98 13 55.4 68 7.4 45.3 13.46 0.53
15:59 1017 30.03 846 24.98 12.9 55.2 71 7.7 45.9 13.35 0.526
16:00 1016 30 845 24.95 12.9 55.2 71 7.8 46.1 13.38 0.527
16:01 1016 30 845 24.95 12.9 55.1 74 8.3 46.9 13.26 0.522
16:02 1016 30 846 24.98 12.7 54.8 75 8.5 47.3 13.12 0.517
16:03 1017 30.03 846 24.98 12.5 54.5 80 9.2 48.6 12.99 0.511
16:04 1016 30 846 24.98 12.5 54.5 81 9.4 48.9 12.99 0.511
16:05 1016 30 846 24.98 12.6 54.7 77 8.7 47.6 13.04 0.513
16:06 1016 30 845 24.95 12.7 54.8 81 9.5 49.2 13.08 0.515
16:07 1016 30 845 24.95 12.8 55.1 78 9.1 48.4 13.27 0.522
16:08 1016 30 845 24.95 12.9 55.3 77 9.1 48.4 13.33 0.525
16:09 1016 30 845 24.95 13.1 55.5 75 8.8 47.9 13.43 0.529
16:10 1016 30 845 24.95 13.2 55.7 74 8.7 47.6 13.45 0.53
16:11 1016 30 845 24.95 13.2 55.8 78 9.5 49.1 13.56 0.534
16:12 1016 30 845 24.95 13.4 56 75 9.1 48.4 13.73 0.541
16:13 1016 30 845 24.95 13.5 56.3 77 9.7 49.4 13.86 0.546
16:14 1016 30 845 24.95 13.8 56.8 74 9.3 48.7 14.11 0.556
16:15 1016 30 845 24.95 13.8 56.9 74 9.3 48.7 14.04 0.553
16:16 1016 30 845 24.95 13.8 56.9 74 9.3 48.7 14.08 0.554
16:17 1016 30 845 24.95 13.8 56.8 73 9.1 48.4 14.08 0.554
16:18 1016 30 845 24.95 13.7 56.7 71 8.5 47.4 13.95 0.549
16:19 1016 30 845 24.95 13.6 56.4 69 8 46.5 13.8 0.543
16:20 1016 30 845 24.95 13.5 56.3 71 8.4 47.2 13.77 0.542
16:21 1016 30 845 24.95 13.5 56.2 72 8.5 47.3 13.76 0.542
16:22 1016 30 845 24.95 13.5 56.3 71 8.3 47 13.71 0.54
16:23 1016 30 845 24.95 13.5 56.3 76 9.3 48.7 13.84 0.545
16:24 1016 30 845 24.95 13.6 56.5 73 9 48.1 13.92 0.548
16:25 1016 30 845 24.95 13.6 56.5 70 8.3 47 13.88 0.546
16:26 1016 30 845 24.95 13.6 56.5 74 9.1 48.4 13.91 0.548
16:27 1016 30 845 24.95 13.7 56.6 74 9.2 48.6 14.03 0.552
16:28 1016 30 845 24.95 13.9 56.9 73 9 48.3 14.23 0.56
16:29 1016 30 845 24.95 14 57.2 71 8.8 47.9 14.39 0.567
16:30 1016 30 845 24.95 14.1 57.3 71 8.9 48.1 14.4 0.567
16:31 1016 30 845 24.95 14.1 57.4 71 9 48.2 14.41 0.567
16:32 1016 30 845 24.95 14.1 57.3 67 8.1 46.5 14.36 0.565
16:33 1016 30 845 24.95 14 57.2 69 8.5 47.3 14.23 0.56
16:34 1016 30 845 24.95 14 57.3 73 9.2 48.6 14.32 0.564
16:35 1016 30 845 24.95 14.2 57.5 70 8.9 48.1 14.4 0.567
16:36 1016 30 845 24.95 14.1 57.4 71 9.1 48.3 14.37 0.566
16:37 1016 30 845 24.95 14 57.2 72 9.1 48.4 14.27 0.562
16:38 1016 30 845 24.95 13.9 57.1 71 8.8 47.9 14.12 0.556
16:39 1016 30 845 24.95 13.7 56.7 70 8.4 47.1 13.99 0.551
16:40 1016 30 845 24.95 13.6 56.5 71 8.4 47.1 13.84 0.545
16:41 1016 30 845 24.95 13.5 56.3 71 8.5 47.2 13.84 0.545
16:42 1016 30 845 24.95 13.4 56.2 69 7.9 46.3 13.76 0.542
16:43 1016 30 845 24.95 13.4 56.1 71 8.3 46.9 13.7 0.539
16:44 1016 30 845 24.95 13.4 56.1 72 8.5 47.2 13.72 0.54
16:45 1016 30 845 24.95 13.7 56.6 70 8.4 47.1 14 0.551
16:46 1016 30 845 24.95 14 57.1 67 8.1 46.5 14.31 0.563
16:47 1016 30 845 24.95 14.1 57.3 69 8.5 47.4 14.41 0.567
16:48 1016 30 845 24.95 14.1 57.4 66 7.8 46.1 14.47 0.57
16:49 1016 30 845 24.95 14 57.2 67 8 46.4 14.27 0.562
16:50 1016 30 845 24.95 13.8 56.9 70 8.4 47.1 14.12 0.556
16:51 1016 30 845 24.95 13.7 56.7 72 8.8 47.9 14.07 0.554
16:52 1016 30 845 24.95 13.7 56.6 68 7.9 46.3 14.02 0.552
16:53 1016 30 845 24.95 13.6 56.5 70 8.4 47 13.98 0.55
16:54 1016 30 845 24.95 13.6 56.4 71 8.4 47 13.94 0.549
16:55 1016 30 845 24.95 13.5 56.3 64 6.8 44.2 13.85 0.545
16:56 1016 30 845 24.95 13.4 56.2 69 7.9 46.2 13.7 0.539
16:57 1016 30 845 24.95 13.3 56 67 7.4 45.3 13.61 0.536
16:58 1016 30 845 24.95 13.3 55.9 67 7.3 45.1 13.56 0.534
16:59 1016 30 845 24.95 13.2 55.8 67 7.3 45.1 13.49 0.531
17:00 1016 30 845 24.95 13.1 55.6 67 7.2 45 13.42 0.528
17:01 1016 30 845 24.95 13.1 55.6 70 7.8 46 13.44 0.529
17:02 1016 30 846 24.98 13 55.5 71 7.8 46.1 13.4 0.528
17:03 1017 30.03 846 24.98 13 55.4 72 8.1 46.5 13.37 0.526
17:04 1017 30.03 846 24.98 12.9 55.2 70 7.5 45.6 13.26 0.522
17:05 1017 30.03 846 24.98 12.9 55.2 71 7.8 46.1 13.21 0.52
17:06 1017 30.03 846 24.98 12.8 55.1 72 8 46.3 13.18 0.519
17:07 1017 30.03 846 24.98 12.7 54.9 69 7.3 45.2 13.12 0.517
17:08 1017 30.03 846 24.98 12.7 54.9 69 7.2 44.9 13.04 0.513
17:09 1017 30.03 846 24.98 12.7 54.8 73 7.9 46.2 13.04 0.513
17:10 1017 30.03 846 24.98 12.6 54.7 74 8.1 46.5 13.01 0.512
17:11 1017 30.03 846 24.98 12.5 54.5 75 8.2 46.7 12.94 0.509
17:12 1017 30.03 846 24.98 12.5 54.4 74 8.1 46.5 12.83 0.505
17:13 1017 30.03 846 24.98 12.3 54.2 75 8.1 46.6 12.75 0.502
17:14 1017 30.03 847 25.01 12.3 54.1 75 8 46.5 12.68 0.499
17:15 1017 30.03 847 25.01 12.2 54 76 8.2 46.7 12.69 0.5
17:16 1018 30.06 847 25.01 12.2 54 79 8.7 47.6 12.65 0.498
17:17 1018 30.06 847 25.01 12.1 53.8 78 8.4 47.1 12.58 0.495
17:18 1018 30.06 847 25.01 12 53.6 81 8.9 48 12.46 0.491
17:19 1018 30.06 847 25.01 11.9 53.4 81 8.8 47.9 12.38 0.487
17:20 1018 30.06 847 25.01 11.8 53.2 81 8.6 47.6 12.25 0.482
17:21 1018 30.06 847 25.01 11.6 52.9 84 9 48.2 12.16 0.479
17:22 1018 30.06 847 25.01 11.4 52.6 83 8.7 47.7 11.98 0.472
17:23 1018 30.06 847 25.01 11.3 52.3 77 7.5 45.5 11.77 0.463
17:24 1018 30.06 847 25.01 11.1 52 76 7.1 44.8 11.49 0.452
17:25 1018 30.06 847 25.01 11 51.9 74 6.6 43.9 11.35 0.447
17:26 1018 30.06 847 25.01 11 51.8 75 6.8 44.2 11.29 0.444
17:27 1018 30.06 847 25.01 10.9 51.7 77 7.1 44.9 11.32 0.446
17:28 1018 30.06 847 25.01 10.9 51.5 77 7 44.6 11.27 0.444
17:29 1018 30.06 847 25.01 10.8 51.5 79 7.3 45.2 11.23 0.442
17:30 1018 30.06 847 25.01 10.8 51.5 79 7.3 45.2 11.21 0.441
17:31 1018 30.06 847 25.01 10.9 51.5 79 7.4 45.4 11.27 0.444
17:32 1018 30.06 847 25.01 10.9 51.6 80 7.6 45.7 11.28 0.444
17:33 1017 30.03 847 25.01 10.9 51.6 81 7.7 45.9 11.31 0.445
17:34 1017 30.03 847 25.01 10.9 51.7 81 7.8 46.1 11.33 0.446
17:35 1017 30.03 847 25.01 11 51.8 82 8.1 46.5 11.4 0.449
17:36 1017 30.03 846 24.98 11 51.9 83 8.2 46.8 11.46 0.451
17:37 1017 30.03 846 24.98 11.1 52 82 8.2 46.7 11.54 0.454
17:38 1017 30.03 846 24.98 11.1 52.1 79 7.6 45.7 11.53 0.454
17:39 1017 30.03 846 24.98 11.2 52.1 83 8.4 47.1 11.62 0.457
17:40 1017 30.03 846 24.98 11.3 52.3 83 8.5 47.3 11.69 0.46
17:41 1017 30.03 846 24.98 11.3 52.4 83 8.5 47.4 11.82 0.465
17:42 1017 30.03 846 24.98 11.4 52.6 84 8.8 47.9 11.85 0.467
17:43 1017 30.03 846 24.98 11.5 52.6 77 7.6 45.7 11.83 0.466
17:44 1017 30.03 846 24.98 11.5 52.7 81 8.4 47.1 11.86 0.467
17:45 1017 30.03 846 24.98 11.6 52.9 81 8.5 47.3 12 0.472
17:46 1017 30.03 846 24.98 11.6 52.9 81 8.4 47.2 12 0.472
17:47 1017 30.03 846 24.98 11.8 53.2 81 8.6 47.4 12.07 0.475
17:48 1017 30.03 846 24.98 11.8 53.3 81 8.8 47.8 12.21 0.481
17:49 1017 30.03 846 24.98 11.9 53.5 80 8.6 47.5 12.28 0.483
17:50 1017 30.03 846 24.98 12 53.6 74 7.5 45.6 12.33 0.485
17:51 1017 30.03 846 24.98 12 53.7 80 8.6 47.5 12.3 0.484
17:52 1017 30.03 846 24.98 12.2 53.9 75 7.9 46.2 12.51 0.493
17:53 1017 30.03 846 24.98 12.1 53.8 78 8.4 47.1 12.45 0.49
17:54 1017 30.03 846 24.98 12.1 53.8 78 8.5 47.2 12.49 0.492
17:55 1017 30.03 846 24.98 12.1 53.8 79 8.5 47.3 12.45 0.49
17:56 1017 30.03 846 24.98 12.1 53.8 79 8.5 47.4 12.46 0.491
17:57 1017 30.03 846 24.98 12.1 53.9 77 8.2 46.8 12.43 0.489
17:58 1017 30.03 846 24.98 12.2 53.9 75 7.9 46.2 12.47 0.491
17:59 1017 30.03 846 24.98 12.2 53.9 78 8.5 47.2 12.45 0.49
18:00 1017 30.03 846 24.98 12.2 53.9 78 8.5 47.3 12.5 0.492
18:01 1017 30.03 846 24.98 12.2 53.9 75 7.9 46.2 12.49 0.492
18:02 1017 30.03 846 24.98 12.2 53.9 77 8.2 46.8 12.55 0.494
18:03 1017 30.03 846 24.98 12.3 54.1 76 8.3 46.9 12.56 0.494
18:04 1017 30.03 846 24.98 12.3 54.1 75 8 46.4 12.63 0.497
18:05 1017 30.03 846 24.98 12.3 54.2 76 8.3 47 12.7 0.5
18:06 1016 30 846 24.98 12.4 54.2 76 8.2 46.7 12.77 0.503
18:07 1016 30 846 24.98 12.5 54.4 75 8.1 46.6 12.83 0.505
18:08 1016 30 846 24.98 12.6 54.7 70 7.4 45.3 12.96 0.51
18:09 1016 30 846 24.98 12.8 55.1 77 8.9 48.1 13.14 0.517
18:10 1017 30.03 846 24.98 13 55.5 74 8.5 47.3 13.44 0.529
18:11 1017 30.03 846 24.98 13.2 55.8 68 7.5 45.4 13.58 0.535
18:12 1017 30.03 846 24.98 13.3 56 66 7.3 45.1 13.65 0.537
18:13 1017 30.03 846 24.98 13.3 56 68 7.7 45.9 13.65 0.537
18:14 1017 30.03 846 24.98 13.3 55.9 70 7.9 46.3 13.67 0.538
18:15 1017 30.03 846 24.98 13.3 55.9 68 7.5 45.5 13.63 0.537
18:16 1017 30.03 846 24.98 13.2 55.8 71 8 46.4 13.61 0.536
18:17 1017 30.03 846 24.98 13.2 55.7 71 8.2 46.7 13.6 0.535
18:18 1017 30.03 846 24.98 13.2 55.7 73 8.5 47.3 13.71 0.54
18:19 1017 30.03 846 24.98 13.3 55.9 72 8.4 47.1 13.73 0.541
18:20 1016 30 846 24.98 13.5 56.2 76 9.4 48.9 13.93 0.548
18:21 1016 30 846 24.98 13.7 56.7 71 8.6 47.5 14.15 0.557
18:22 1016 30 846 24.98 13.8 56.8 67 7.9 46.1 14.17 0.558
18:23 1016 30 845 24.95 13.9 56.9 74 9.3 48.7 14.24 0.561
18:24 1016 30 846 24.98 14 57.1 71 8.9 47.9 14.34 0.565
18:25 1016 30 846 24.98 14 57.2 67 8.1 46.6 14.42 0.568
18:26 1016 30 846 24.98 14 57.2 65 7.5 45.5 14.41 0.567
18:27 1016 30 846 24.98 13.9 56.9 66 7.7 45.9 14.28 0.562
18:28 1016 30 846 24.98 13.6 56.5 66 7.5 45.4 14.05 0.553
18:29 1017 30.03 846 24.98 13.5 56.2 71 8.3 47 13.93 0.548
18:30 1017 30.03 846 24.98 13.4 56.1 72 8.5 47.3 13.93 0.548
18:31 1016 30 846 24.98 13.4 56.2 69 8 46.3 13.93 0.548
18:32 1017 30.03 846 24.98 13.4 56.1 70 8.1 46.6 13.85 0.545
18:33 1016 30 846 24.98 13.3 55.9 71 8.3 46.9 13.74 0.541
18:34 1016 30 846 24.98 13.2 55.8 73 8.5 47.3 13.7 0.539
18:35 1016 30 845 24.95 13.3 55.9 72 8.4 47.2 13.79 0.543
18:36 1016 30 845 24.95 13.3 56 69 7.9 46.2 13.76 0.542
18:37 1016 30 845 24.95 13.4 56.1 71 8.2 46.8 13.77 0.542
18:38 1016 30 845 24.95 13.4 56.2 71 8.3 46.9 13.82 0.544
18:39 1016 30 845 24.95 13.4 56.1 71 8.2 46.8 13.75 0.541
18:40 1016 30 845 24.95 13.2 55.7 69 7.8 46 13.55 0.533
18:41 1016 30 845 24.95 13 55.5 75 8.6 47.6 13.45 0.53
18:42 1016 30 845 24.95 12.9 55.2 75 8.6 47.5 13.37 0.526
18:43 1016 30 845 24.95 12.8 55.1 72 8 46.4 13.2 0.52
18:44 1016 30 845 24.95 12.7 54.9 74 8.3 46.9 13.1 0.516
18:45 1016 30 845 24.95 12.6 54.7 76 8.5 47.3 13.05 0.514
18:46 1016 30 845 24.95 12.5 54.6 76 8.4 47.2 12.98 0.511
18:47 1016 30 845 24.95 12.5 54.5 77 8.6 47.5 12.94 0.509
18:48 1016 30 845 24.95 12.5 54.4 78 8.8 47.8 12.93 0.509
18:49 1016 30 845 24.95 12.4 54.4 77 8.5 47.3 12.93 0.509
18:50 1016 30 845 24.95 12.4 54.4 77 8.6 47.4 12.89 0.507
18:51 1016 30 845 24.95 12.4 54.4 78 8.8 47.8 12.93 0.509
18:52 1016 30 845 24.95 12.5 54.4 78 8.7 47.7 12.94 0.509
18:53 1016 30 845 24.95 12.4 54.4 78 8.7 47.6 12.95 0.51
18:54 1016 30 845 24.95 12.4 54.4 80 9 48.2 12.97 0.511
18:55 1016 30 845 24.95 12.5 54.4 79 9 48.2 12.95 0.51
18:56 1016 30 845 24.95 12.4 54.4 83 9.6 49.3 12.99 0.511
18:57 1016 30 845 24.95 12.5 54.4 82 9.5 49.1 13.01 0.512
18:58 1016 30 845 24.95 12.4 54.4 81 9.3 48.8 13 0.512
18:59 1016 30 845 24.95 12.4 54.4 79 9 48.2 12.96 0.51
19:00 1016 30 845 24.95 12.6 54.7 79 9 48.3 13.06 0.514
19:01 1016 30 845 24.95 12.7 54.9 79 9.2 48.5 13.16 0.518
19:02 1016 30 845 24.95 12.9 55.2 75 8.7 47.6 13.26 0.522
19:03 1015 29.97 845 24.95 13.1 55.5 75 8.8 47.8 13.5 0.531
19:04 1015 29.97 845 24.95 13.2 55.7 76 9.1 48.5 13.63 0.537
19:05 1015 29.97 845 24.95 13.3 56 75 8.9 48.1 13.81 0.544
19:06 1015 29.97 844 24.92 13.5 56.3 73 8.8 47.8 13.93 0.548
19:07 1015 29.97 844 24.92 13.6 56.4 73 8.9 48 14.1 0.555
19:08 1015 29.97 844 24.92 13.7 56.6 71 8.6 47.5 14.19 0.559
19:09 1015 29.97 844 24.92 13.8 56.8 71 8.6 47.5 14.33 0.564
19:10 1015 29.97 844 24.92 13.8 56.8 71 8.7 47.7 14.39 0.567
19:11 1015 29.97 844 24.92 13.9 57 71 8.9 47.9 14.44 0.569
19:12 1015 29.97 844 24.92 14 57.1 72 9.1 48.4 14.53 0.572
19:13 1015 29.97 844 24.92 14.1 57.3 72 9.1 48.3 14.65 0.577
19:14 1015 29.97 844 24.92 14.2 57.5 71 9.1 48.4 14.75 0.581
19:15 1015 29.97 844 24.92 14.3 57.7 69 8.7 47.6 14.95 0.589
19:16 1015 29.97 844 24.92 14.3 57.7 69 8.8 47.9 14.97 0.589
19:17 1015 29.97 844 24.92 14.3 57.7 66 8.1 46.6 14.96 0.589
19:18 1015 29.97 844 24.92 14.3 57.7 68 8.5 47.4 14.96 0.589
19:19 1015 29.97 844 24.92 14.3 57.7 71 9.1 48.3 15.01 0.591
19:20 1015 29.97 844 24.92 14.3 57.7 65 7.8 46.1 15 0.591
19:21 1015 29.97 844 24.92 14.3 57.7 66 8 46.3 14.95 0.589
19:22 1015 29.97 844 24.92 14.2 57.6 69 8.6 47.4 14.95 0.589
19:23 1015 29.97 844 24.92 14.2 57.6 64 7.7 45.8 14.98 0.59
19:24 1015 29.97 844 24.92 14.3 57.7 70 8.9 48.1 14.99 0.59
19:25 1015 29.97 844 24.92 14.3 57.8 66 8 46.5 15.02 0.591
19:26 1015 29.97 844 24.92 14.3 57.8 66 8.1 46.6 14.98 0.59
19:27 1015 29.97 844 24.92 14.3 57.8 66 8.1 46.6 14.98 0.59
19:28 1015 29.97 844 24.92 14.3 57.7 67 8.3 47 14.96 0.589
19:29 1015 29.97 844 24.92 14.3 57.7 66 8 46.4 14.85 0.585
19:30 1015 29.97 844 24.92 14.3 57.7 66 8.1 46.5 14.84 0.584
19:31 1015 29.97 844 24.92 14.3 57.7 67 8.2 46.8 14.86 0.585
19:32 1015 29.97 844 24.92 14.3 57.7 65 7.8 46.1 14.88 0.586
19:33 1015 29.97 844 24.92 14.2 57.6 65 7.9 46.2 14.81 0.583
19:34 1015 29.97 844 24.92 14.2 57.6 70 8.8 47.9 14.87 0.585
19:35 1015 29.97 844 24.92 14.3 57.7 67 8.4 47.1 14.88 0.586
19:36 1015 29.97 844 24.92 14.3 57.7 69 8.8 47.9 14.87 0.585
19:37 1015 29.97 844 24.92 14.3 57.8 69 8.7 47.7 14.88 0.586
19:38 1015 29.97 844 24.92 14.4 57.8 67 8.4 47.2 14.89 0.586
19:39 1015 29.97 844 24.92 14.4 57.9 64 7.8 46.1 14.83 0.584
19:40 1015 29.97 844 24.92 14.3 57.8 66 8.1 46.5 14.84 0.584
19:41 1015 29.97 844 24.92 14.4 57.9 67 8.4 47.2 14.87 0.585
19:42 1015 29.97 844 24.92 14.4 58 66 8.2 46.8 14.86 0.585
19:43 1015 29.97 844 24.92 14.4 58 67 8.4 47.1 14.84 0.584
19:44 1015 29.97 844 24.92 14.4 57.9 67 8.5 47.2 14.83 0.584
19:45 1015 29.97 844 24.92 14.4 57.8 68 8.7 47.6 14.75 0.581
19:46 1015 29.97 844 24.92 14.3 57.7 68 8.4 47.1 14.64 0.576
19:47 1015 29.97 844 24.92 14.1 57.3 66 7.9 46.3 14.5 0.571
19:48 1015 29.97 844 24.92 13.9 57 66 7.7 45.9 14.33 0.564
19:49 1015 29.97 844 24.92 13.8 56.8 68 7.9 46.3 14.09 0.555
19:50 1015 29.97 844 24.92 13.6 56.5 69 8.1 46.5 13.97 0.55
19:51 1015 29.97 844 24.92 13.5 56.2 70 8.1 46.6 13.79 0.543
19:52 1015 29.97 844 24.92 13.3 56 68 7.6 45.6 13.64 0.537
19:53 1015 29.97 844 24.92 13.2 55.8 70 7.8 46 13.6 0.535
19:54 1015 29.97 844 24.92 13.2 55.7 71 8.1 46.5 13.53 0.533
19:55 1015 29.97 844 24.92 13.1 55.6 70 7.8 46.1 13.44 0.529
19:56 1015 29.97 844 24.92 13.1 55.5 71 8 46.3 13.43 0.529
19:57 1015 29.97 844 24.92 12.9 55.3 72 8 46.4 13.33 0.525
19:58 1015 29.97 844 24.92 12.9 55.2 70 7.7 45.8 13.25 0.522
19:59 1015 29.97 844 24.92 12.8 55 71 7.7 45.8 13.2 0.52
20:00 1015 29.97 844 24.92 12.8 55 70 7.5 45.5 13.18 0.519
20:01 1015 29.97 844 24.92 12.8 55 71 7.6 45.7 13.16 0.518
20:02 1015 29.97 844 24.92 12.8 55 71 7.6 45.7 13.19 0.519
20:03 1015 29.97 844 24.92 12.8 55.1 71 7.8 46.1 13.21 0.52
20:04 1015 29.97 844 24.92 12.8 55.1 70 7.6 45.6 13.17 0.519
20:05 1015 29.97 844 24.92 12.8 55 71 7.6 45.7 13.19 0.519
20:06 1015 29.97 844 24.92 12.9 55.1 72 8 46.3 13.25 0.522
20:07 1015 29.97 844 24.92 12.8 55.1 71 7.8 46.1 13.21 0.52
20:08 1015 29.97 844 24.92 12.8 55 70 7.6 45.6 13.17 0.519
20:09 1015 29.97 844 24.92 12.8 55 72 7.8 46.1 13.15 0.518
20:10 1015 29.97 844 24.92 12.7 54.9 72 7.9 46.2 13.13 0.517
20:11 1015 29.97 844 24.92 12.7 54.8 73 8.1 46.5 13.03 0.513
20:12 1015 29.97 844 24.92 12.6 54.6 74 8 46.5 12.88 0.507
20:13 1015 29.97 844 24.92 12.4 54.4 74 8 46.4 12.8 0.504
20:14 1015 29.97 844 24.92 12.4 54.3 75 8.2 46.7 12.67 0.499
20:15 1015 29.97 844 24.92 12.3 54.1 75 8.1 46.6 12.62 0.497
20:16 1015 29.97 844 24.92 12.3 54.1 74 7.7 45.9 12.63 0.497
20:17 1015 29.97 844 24.92 12.3 54.1 74 7.8 46 12.61 0.496
20:18 1015 29.97 844 24.92 12.3 54.2 74 7.9 46.2 12.72 0.501
20:19 1015 29.97 844 24.92 12.4 54.2 74 7.9 46.2 12.71 0.5
20:20 1015 29.97 844 24.92 12.4 54.4 74 8 46.3 12.79 0.504
20:21 1015 29.97 844 24.92 12.4 54.4 74 7.9 46.2 12.8 0.504
20:22 1015 29.97 844 24.92 12.5 54.5 74 8 46.3 12.87 0.507
20:23 1015 29.97 844 24.92 12.6 54.6 75 8.2 46.7 12.92 0.509
20:24 1015 29.97 844 24.92 12.6 54.6 74 8.2 46.7 12.92 0.509
20:25 1015 29.97 844 24.92 12.5 54.6 73 7.8 46.1 12.9 0.508
20:26 1015 29.97 845 24.95 12.6 54.7 73 8 46.4 12.99 0.511
20:27 1015 29.97 845 24.95 12.6 54.7 74 8.2 46.7 12.99 0.511
20:28 1015 29.97 845 24.95 12.6 54.7 74 8.1 46.6 12.96 0.51
20:29 1015 29.97 845 24.95 12.7 54.8 73 8 46.5 13.03 0.513
20:30 1015 29.97 845 24.95 12.7 54.8 75 8.3 47 12.99 0.511
20:31 1015 29.97 845 24.95 12.6 54.6 75 8.2 46.8 12.96 0.51
20:32 1015 29.97 845 24.95 12.5 54.6 75 8.2 46.7 12.89 0.507
20:33 1015 29.97 845 24.95 12.5 54.6 75 8.3 46.9 12.93 0.509
20:34 1015 29.97 845 24.95 12.6 54.6 75 8.3 46.9 12.93 0.509
20:35 1015 29.97 845 24.95 12.6 54.6 75 8.3 46.9 12.93 0.509
20:36 1015 29.97 845 24.95 12.6 54.7 75 8.3 46.9 12.88 0.507
20:37 1015 29.97 845 24.95 12.5 54.5 75 8.2 46.7 12.91 0.508
20:38 1015 29.97 845 24.95 12.6 54.6 75 8.2 46.8 12.91 0.508
20:39 1016 30 845 24.95 12.6 54.6 77 8.6 47.5 12.92 0.509
20:40 1016 30 845 24.95 12.5 54.4 78 8.7 47.6 12.79 0.504
20:41 1016 30 845 24.95 12.4 54.3 79 8.8 47.9 12.73 0.501
20:42 1016 30 845 24.95 12.3 54.1 81 9.1 48.5 12.62 0.497
20:43 1016 30 845 24.95 12.1 53.8 83 9.2 48.6 12.51 0.493
20:44 1016 30 845 24.95 12 53.6 84 9.4 48.9 12.35 0.486
20:45 1016 30 845 24.95 11.8 53.3 85 9.4 48.8 12.24 0.482
20:46 1016 30 845 24.95 11.8 53.2 85 9.4 48.9 12.11 0.477
20:47 1016 30 845 24.95 11.7 53 86 9.4 48.9 12.07 0.475
20:48 1016 30 845 24.95 11.6 52.9 86 9.4 49 11.98 0.472
20:49 1016 30 845 24.95 11.6 52.9 87 9.5 49 12 0.472
20:50 1016 30 845 24.95 11.6 52.8 87 9.5 49 11.95 0.47
20:51 1016 30 845 24.95 11.5 52.7 87 9.5 49.1 11.93 0.47
20:52 1016 30 845 24.95 11.5 52.6 88 9.5 49.1 11.85 0.467
20:53 1016 30 845 24.95 11.5 52.6 88 9.5 49.1 11.84 0.466
20:54 1016 30 846 24.98 11.4 52.6 88 9.5 49.2 11.84 0.466
20:55 1016 30 846 24.98 11.4 52.5 88 9.5 49.1 11.78 0.464
20:56 1016 30 846 24.98 11.3 52.4 88 9.4 49 11.71 0.461
20:57 1016 30 846 24.98 11.2 52.2 88 9.3 48.7 11.63 0.458
20:58 1016 30 846 24.98 11.2 52.2 89 9.4 48.9 11.55 0.455
20:59 1016 30 846 24.98 11.1 52 89 9.4 48.8 11.5 0.453
21:00 1016 30 845 24.95 11 51.9 89 9.3 48.7 11.39 0.448
21:01 1016 30 845 24.95 10.9 51.7 89 9.2 48.6 11.36 0.447
21:02 1016 30 845 24.95 10.9 51.6 89 9.2 48.6 11.21 0.441
21:03 1016 30 845 24.95 10.8 51.5 90 9.2 48.6 11.17 0.44
21:04 1016 30 845 24.95 10.8 51.4 90 9.2 48.6 11.14 0.439
21:05 1016 30 845 24.95 10.7 51.3 90 9.2 48.6 11.08 0.436
21:06 1016 30 845 24.95 10.7 51.2 91 9.2 48.6 11.06 0.435
21:07 1016 30 845 24.95 10.7 51.2 91 9.2 48.6 11.1 0.437
21:08 1016 30 846 24.98 10.7 51.2 91 9.3 48.7 11.03 0.434
21:09 1016 30 846 24.98 10.6 51.1 91 9.3 48.7 11 0.433
21:10 1017 30.03 846 24.98 10.6 51.1 91 9.3 48.7 10.98 0.432
21:11 1017 30.03 846 24.98 10.6 51 92 9.3 48.7 10.96 0.431
21:12 1017 30.03 846 24.98 10.5 51 92 9.2 48.6 10.94 0.431
21:13 1017 30.03 846 24.98 10.6 51.1 92 9.3 48.8 10.94 0.431
21:14 1017 30.03 846 24.98 10.6 51 92 9.3 48.8 10.96 0.431
21:15 1017 30.03 846 24.98 10.5 51 92 9.3 48.7 10.97 0.432
21:16 1017 30.03 846 24.98 10.6 51 92 9.2 48.6 10.92 0.43
21:17 1017 30.03 846 24.98 10.6 51 91 9.2 48.5 10.96 0.431
21:18 1017 30.03 846 24.98 10.6 51 91 9.1 48.5 10.89 0.429
21:19 1017 30.03 846 24.98 10.6 51 91 9.1 48.4 10.93 0.43
21:20 1017 30.03 846 24.98 10.6 51 90 9.1 48.3 10.93 0.43
21:21 1017 30.03 846 24.98 10.6 51.1 90 9.1 48.4 10.95 0.431
21:22 1017 30.03 846 24.98 10.6 51.1 91 9.2 48.5 10.98 0.432
21:23 1017 30.03 846 24.98 10.6 51.1 91 9.2 48.5 10.95 0.431
21:24 1017 30.03 846 24.98 10.6 51 91 9.2 48.6 10.99 0.433
21:25 1017 30.03 846 24.98 10.6 51.1 91 9.2 48.6 10.97 0.432
21:26 1017 30.03 846 24.98 10.6 51 92 9.2 48.6 10.94 0.431
21:27 1017 30.03 846 24.98 10.5 50.9 92 9.3 48.7 10.92 0.43
21:28 1017 30.03 846 24.98 10.5 50.8 92 9.3 48.7 10.9 0.429
21:29 1016 30 846 24.98 10.4 50.8 92 9.2 48.6 10.83 0.426
21:30 1016 30 846 24.98 10.4 50.7 92 9.2 48.5 10.8 0.425
21:31 1016 30 845 24.95 10.4 50.8 92 9.2 48.6 10.81 0.426
21:32 1016 30 845 24.95 10.4 50.8 92 9.2 48.6 10.8 0.425
21:33 1016 30 846 24.98 10.4 50.8 92 9.1 48.5 10.81 0.426
21:34 1016 30 846 24.98 10.4 50.7 92 9.1 48.4 10.77 0.424
21:35 1017 30.03 846 24.98 10.4 50.8 92 9.2 48.5 10.73 0.422
21:36 1017 30.03 846 24.98 10.4 50.7 92 9.2 48.5 10.73 0.422
21:37 1017 30.03 846 24.98 10.4 50.7 92 9.2 48.5 10.76 0.424
21:38 1017 30.03 846 24.98 10.4 50.6 92 9.2 48.5 10.73 0.422
21:39 1017 30.03 846 24.98 10.3 50.6 93 9.2 48.5 10.73 0.422
21:40 1017 30.03 846 24.98 10.3 50.6 93 9.2 48.6 10.71 0.422
21:41 1017 30.03 846 24.98 10.3 50.6 93 9.2 48.6 10.71 0.422
21:42 1017 30.03 846 24.98 10.3 50.5 93 9.2 48.5 10.7 0.421
21:43 1017 30.03 846 24.98 10.3 50.5 93 9.1 48.5 10.67 0.42
21:44 1017 30.03 846 24.98 10.3 50.5 93 9.1 48.4 10.64 0.419
21:45 1017 30.03 846 24.98 10.3 50.5 92 9.1 48.4 10.66 0.42
21:46 1017 30.03 846 24.98 10.3 50.5 93 9.1 48.4 10.59 0.417
21:47 1017 30.03 846 24.98 10.3 50.5 92 9.1 48.3 10.64 0.419
21:48 1017 30.03 846 24.98 10.3 50.5 92 9 48.3 10.66 0.42
21:49 1017 30.03 846 24.98 10.2 50.4 92 9.1 48.3 10.58 0.417
21:50 1017 30.03 846 24.98 10.3 50.5 93 9.1 48.4 10.59 0.417
21:51 1017 30.03 846 24.98 10.2 50.4 93 9.1 48.3 10.57 0.416
21:52 1017 30.03 846 24.98 10.2 50.3 93 9.1 48.3 10.55 0.415
21:53 1017 30.03 846 24.98 10.2 50.3 93 9.1 48.3 10.53 0.415
21:54 1017 30.03 846 24.98 10.2 50.3 93 9.1 48.4 10.52 0.414
21:55 1017 30.03 846 24.98 10.2 50.3 93 9.1 48.4 10.5 0.413
21:56 1017 30.03 846 24.98 10.1 50.2 93 9 48.3 10.48 0.413
21:57 1017 30.03 846 24.98 10.1 50.2 93 9.1 48.3 10.47 0.412
21:58 1017 30.03 846 24.98 10.1 50.2 93 9 48.2 10.46 0.412
21:59 1017 30.03 846 24.98 10.1 50.2 93 9.1 48.3 10.46 0.412
22:00 1017 30.03 846 24.98 10.1 50.1 93 9 48.3 10.46 0.412
22:01 1017 30.03 846 24.98 10.1 50.2 93 9 48.3 10.41 0.41
22:02 1017 30.03 846 24.98 10.1 50.1 93 9 48.3 10.37 0.408
22:03 1017 30.03 846 24.98 10.1 50.1 93 9 48.3 10.38 0.409
22:04 1017 30.03 846 24.98 10 50.1 93 9 48.2 10.4 0.409
22:05 1017 30.03 846 24.98 10 50.1 93 9 48.2 10.35 0.407
22:06 1017 30.03 846 24.98 10 50 94 9 48.2 10.35 0.407
22:07 1017 30.03 846 24.98 10 50 94 9 48.2 10.35 0.407
22:08 1017 30.03 846 24.98 10 49.9 94 9 48.2 10.32 0.406
22:09 1017 30.03 846 24.98 9.9 49.9 93 8.9 48 10.29 0.405
22:10 1017 30.03 846 24.98 9.9 49.8 93 8.9 48 10.25 0.404
22:11 1017 30.03 846 24.98 9.9 49.8 93 8.9 48 10.25 0.404
22:12 1017 30.03 846 24.98 9.9 49.8 93 8.9 48 10.22 0.402
22:13 1017 30.03 846 24.98 9.9 49.8 93 8.8 47.9 10.21 0.402
22:14 1017 30.03 846 24.98 9.9 49.7 93 8.8 47.8 10.22 0.402
22:15 1017 30.03 846 24.98 9.9 49.7 93 8.7 47.7 10.15 0.4
22:16 1017 30.03 846 24.98 9.9 49.7 93 8.7 47.7 10.17 0.4
22:17 1017 30.03 846 24.98 9.8 49.6 93 8.7 47.6 10.14 0.399
22:18 1017 30.03 846 24.98 9.7 49.5 93 8.6 47.6 10.09 0.397
22:19 1017 30.03 846 24.98 9.7 49.4 93 8.6 47.5 10.04 0.395
22:20 1017 30.03 846 24.98 9.6 49.2 93 8.5 47.4 9.94 0.391
22:21 1017 30.03 846 24.98 9.6 49.2 94 8.6 47.4 9.89 0.389
22:22 1017 30.03 846 24.98 9.5 49 94 8.5 47.3 9.87 0.389
22:23 1017 30.03 847 25.01 9.5 49 94 8.6 47.5 9.86 0.388
22:24 1017 30.03 847 25.01 9.5 49 95 8.7 47.6 9.86 0.388
22:25 1018 30.06 847 25.01 9.5 49 95 8.7 47.7 9.89 0.389
22:26 1018 30.06 847 25.01 9.4 49 95 8.7 47.7 9.85 0.388
22:27 1018 30.06 847 25.01 9.5 49.1 96 8.8 47.9 9.89 0.389
22:28 1018 30.06 847 25.01 9.6 49.2 96 8.9 48 9.94 0.391
22:29 1018 30.06 847 25.01 9.6 49.2 96 8.9 48.1 10 0.394
22:30 1018 30.06 847 25.01 9.6 49.3 96 9 48.2 10.06 0.396
22:31 1018 30.06 847 25.01 9.6 49.4 96 9 48.2 10.09 0.397
22:32 1018 30.06 847 25.01 9.7 49.4 96 9.1 48.3 10.16 0.4
22:33 1018 30.06 847 25.01 9.7 49.4 96 9.1 48.3 10.14 0.399
22:34 1018 30.06 847 25.01 9.7 49.5 96 9.1 48.3 10.15 0.4
22:35 1017 30.03 847 25.01 9.8 49.6 96 9.1 48.4 10.15 0.4
22:36 1017 30.03 847 25.01 9.7 49.5 96 9.1 48.3 10.17 0.4
22:37 1017 30.03 847 25.01 9.7 49.5 96 9.1 48.3 10.13 0.399
22:38 1017 30.03 847 25.01 9.8 49.6 95 9.1 48.3 10.16 0.4
22:39 1017 30.03 846 24.98 9.8 49.6 95 9.1 48.3 10.15 0.4
22:40 1017 30.03 846 24.98 9.7 49.5 95 9 48.2 10.13 0.399
22:41 1017 30.03 846 24.98 9.7 49.5 95 9 48.2 10.13 0.399
22:42 1017 30.03 846 24.98 9.7 49.5 95 9 48.2 10.13 0.399
22:43 1017 30.03 847 25.01 9.7 49.4 95 9 48.1 10.04 0.395
22:44 1017 30.03 847 25.01 9.7 49.4 96 9 48.2 10.08 0.397
22:45 1017 30.03 847 25.01 9.7 49.5 96 9 48.2 10.06 0.396
22:46 1017 30.03 847 25.01 9.7 49.4 96 9 48.2 10.06 0.396
22:47 1018 30.06 847 25.01 9.6 49.4 96 9 48.2 10.03 0.395
22:48 1018 30.06 847 25.01 9.6 49.3 96 9 48.1 10.01 0.394
22:49 1018 30.06 847 25.01 9.6 49.3 96 9 48.2 9.97 0.393
22:50 1018 30.06 847 25.01 9.6 49.2 96 9 48.2 10 0.394
22:51 1018 30.06 847 25.01 9.6 49.3 96 9 48.2 10.02 0.394
22:52 1018 30.06 847 25.01 9.6 49.3 96 9.1 48.4 10.04 0.395
22:53 1018 30.06 847 25.01 9.6 49.3 97 9.1 48.4 10.06 0.396
22:54 1018 30.06 847 25.01 9.7 49.4 97 9.1 48.5 10.11 0.398
22:55 1018 30.06 847 25.01 9.7 49.4 96 9.1 48.5 10.11 0.398
22:56 1018 30.06 847 25.01 9.7 49.5 96 9.2 48.5 10.11 0.398
22:57 1018 30.06 847 25.01 9.7 49.5 96 9.1 48.5 10.12 0.398
22:58 1018 30.06 847 25.01 9.7 49.4 96 9.1 48.4 10.11 0.398
22:59 1018 30.06 848 25.04 9.7 49.5 96 9.1 48.4 10.1 0.398
23:00 1018 30.06 847 25.01 9.7 49.5 96 9.1 48.4 10.07 0.396
23:01 1018 30.06 847 25.01 9.7 49.5 96 9.1 48.4 10.09 0.397
23:02 1018 30.06 847 25.01 9.7 49.5 96 9.1 48.4 10.06 0.396
23:03 1018 30.06 847 25.01 9.7 49.5 96 9.1 48.4 10.06 0.396
23:04 1018 30.06 847 25.01 9.7 49.5 96 9.1 48.3 10.03 0.395
23:05 1018 30.06 847 25.01 9.7 49.5 96 9.1 48.3 10.01 0.394
23:06 1018 30.06 847 25.01 9.7 49.5 96 9 48.3 10.03 0.395
23:07 1018 30.06 847 25.01 9.7 49.4 96 9 48.2 10.03 0.395
23:08 1018 30.06 847 25.01 9.7 49.4 96 9 48.2 10 0.394
23:09 1018 30.06 847 25.01 9.7 49.4 96 9 48.2 10.01 0.394
23:10 1018 30.06 847 25.01 9.7 49.4 95 9 48.1 9.97 0.393
23:11 1018 30.06 847 25.01 9.6 49.3 96 9 48.1 9.95 0.392
23:12 1018 30.06 847 25.01 9.6 49.3 96 9 48.1 9.94 0.391
23:13 1018 30.06 847 25.01 9.6 49.3 96 8.9 48.1 9.95 0.392
23:14 1018 30.06 847 25.01 9.6 49.2 96 8.9 48.1 9.92 0.391
23:15 1018 30.06 847 25.01 9.5 49.1 96 8.9 48 9.85 0.388
23:16 1018 30.06 847 25.01 9.5 49 96 8.8 47.9 9.8 0.386
23:17 1018 30.06 847 25.01 9.4 48.9 96 8.8 47.8 9.77 0.385
23:18 1018 30.06 847 25.01 9.4 48.9 96 8.7 47.7 9.73 0.383
23:19 1018 30.06 847 25.01 9.4 48.9 96 8.8 47.8 9.75 0.384
23:20 1018 30.06 847 25.01 9.3 48.8 96 8.8 47.8 9.74 0.383
23:21 1018 30.06 847 25.01 9.3 48.8 96 8.8 47.8 9.72 0.383
23:22 1018 30.06 847 25.01 9.3 48.8 96 8.8 47.8 9.69 0.381
23:23 1018 30.06 847 25.01 9.3 48.8 96 8.8 47.8 9.72 0.383
23:24 1018 30.06 847 25.01 9.4 48.9 96 8.8 47.9 9.74 0.383
23:25 1018 30.06 847 25.01 9.4 49 96 8.9 47.9 9.76 0.384
23:26 1018 30.06 847 25.01 9.4 49 96 8.9 47.9 9.77 0.385
23:27 1018 30.06 847 25.01 9.4 49 96 8.8 47.9 9.77 0.385
23:28 1018 30.06 847 25.01 9.5 49 96 8.9 48 9.8 0.386
23:29 1018 30.06 847 25.01 9.5 49 96 8.9 47.9 9.8 0.386
23:30 1018 30.06 847 25.01 9.5 49 96 8.9 48 9.77 0.385
23:31 1018 30.06 847 25.01 9.5 49 96 8.9 48 9.84 0.387
23:32 1018 30.06 847 25.01 9.5 49 96 8.9 48 9.79 0.385
23:33 1017 30.03 847 25.01 9.5 49 96 8.8 47.9 9.81 0.386
23:34 1017 30.03 847 25.01 9.5 49 95 8.8 47.8 9.79 0.385
23:35 1017 30.03 847 25.01 9.4 48.9 95 8.6 47.5 9.72 0.383
23:36 1017 30.03 847 25.01 9.4 48.8 94 8.5 47.3 9.68 0.381
23:37 1017 30.03 847 25.01 9.3 48.8 94 8.4 47.1 9.64 0.38
23:38 1017 30.03 846 24.98 9.3 48.8 94 8.4 47.1 9.63 0.379
23:39 1017 30.03 846 24.98 9.3 48.8 94 8.4 47.1 9.63 0.379
23:40 1017 30.03 847 25.01 9.3 48.7 94 8.3 47 9.59 0.378
23:41 1017 30.03 847 25.01 9.3 48.7 94 8.3 47 9.56 0.376
23:42 1017 30.03 847 25.01 9.2 48.6 94 8.4 47.1 9.6 0.378
23:43 1017 30.03 847 25.01 9.2 48.6 95 8.5 47.3 9.56 0.376
23:44 1017 30.03 847 25.01 9.2 48.6 95 8.5 47.3 9.61 0.378
23:45 1017 30.03 847 25.01 9.2 48.6 95 8.5 47.3 9.62 0.379
23:46 1017 30.03 847 25.01 9.2 48.6 95 8.5 47.3 9.64 0.38
23:47 1017 30.03 847 25.01 9.2 48.6 96 8.6 47.4 9.62 0.379
23:48 1017 30.03 847 25.01 9.3 48.7 96 8.6 47.5 9.66 0.38
23:49 1017 30.03 847 25.01 9.3 48.7 96 8.6 47.5 9.65 0.38
23:50 1017 30.03 847 25.01 9.3 48.7 95 8.6 47.4 9.66 0.38
23:51 1017 30.03 847 25.01 9.3 48.7 95 8.6 47.4 9.65 0.38
23:52 1017 30.03 847 25.01 9.3 48.8 95 8.6 47.5 9.64 0.38
23:53 1017 30.03 847 25.01 9.3 48.8 95 8.6 47.4 9.71 0.382
23:54 1017 30.03 847 25.01 9.4 48.8 95 8.6 47.5 9.69 0.381
23:55 1017 30.03 847 25.01 9.3 48.8 95 8.6 47.4 9.67 0.381
23:56 1017 30.03 847 25.01 9.3 48.8 95 8.6 47.5 9.66 0.38
23:57 1017 30.03 847 25.01 9.3 48.7 95 8.6 47.5 9.72 0.383
23:58 1017 30.03 846 24.98 9.3 48.7 95 8.6 47.5 9.68 0.381
23:59 1017 30.03 846 24.98 9.3 48.7 95 8.6 47.4 9.65 0.38
24:00 1017 30.03 846 24.98 9.3 48.7 95 8.5 47.4 9.66 0.38